<?xml version="1.0" encoding="UTF-8" standalone="no" ?>
<gpx xmlns="http://www.topografix.com/GPX/1/1" xmlns:xsi="http://www.w3.org/2001/XMLSchema-instance" xsi:schemaLocation="http://www.topografix.com/GPX/1/1 http://www.topografix.com/GPX/1/1/gpx.xsd" version="1.1" creator="VisuGPX - https://www.visugpx.com">
  <metadata>
    <name>Marseille-Le cartier du panier et la bonne mère</name>
    <desc><![CDATA[Marseille-Le cartier du panier et la bonne mère]]></desc>
  </metadata>
  <trk>
    <name><![CDATA[2016-04-22 14:21:39]]></name>
    <trkseg>
      <trkpt lat="43.29387" lon="5.37268">
        <ele>7.83</ele>
        <time>2016-04-22T07:58:29Z</time>
      </trkpt>
      <trkpt lat="43.29388" lon="5.37282">
        <ele>2.54</ele>
        <time>2016-04-22T07:58:38Z</time>
      </trkpt>
      <trkpt lat="43.29389" lon="5.37299">
        <ele>3.5</ele>
        <time>2016-04-22T07:58:51Z</time>
      </trkpt>
      <trkpt lat="43.29396" lon="5.3732">
        <ele>3.5</ele>
        <time>2016-04-22T07:59:04Z</time>
      </trkpt>
      <trkpt lat="43.29397" lon="5.37322">
        <ele>3.02</ele>
        <time>2016-04-22T07:59:05Z</time>
      </trkpt>
      <trkpt lat="43.29402" lon="5.37334">
        <ele>2.54</ele>
        <time>2016-04-22T07:59:20Z</time>
      </trkpt>
      <trkpt lat="43.294" lon="5.37335">
        <ele>2.06</ele>
        <time>2016-04-22T07:59:34Z</time>
      </trkpt>
      <trkpt lat="43.29398" lon="5.37334">
        <ele>0.14</ele>
        <time>2016-04-22T07:59:49Z</time>
      </trkpt>
      <trkpt lat="43.29403" lon="5.3734">
        <ele>-0.34</ele>
        <time>2016-04-22T08:00:06Z</time>
      </trkpt>
      <trkpt lat="43.29405" lon="5.37345">
        <ele>0.14</ele>
        <time>2016-04-22T08:00:11Z</time>
      </trkpt>
      <trkpt lat="43.29411" lon="5.37369">
        <ele>2.54</ele>
        <time>2016-04-22T08:00:30Z</time>
      </trkpt>
      <trkpt lat="43.29417" lon="5.37386">
        <ele>4.94</ele>
        <time>2016-04-22T08:00:41Z</time>
      </trkpt>
      <trkpt lat="43.29425" lon="5.37408">
        <ele>7.83</ele>
        <time>2016-04-22T08:01:00Z</time>
      </trkpt>
      <trkpt lat="43.29443" lon="5.37404">
        <ele>15.52</ele>
        <time>2016-04-22T08:01:21Z</time>
      </trkpt>
      <trkpt lat="43.29465" lon="5.37399">
        <ele>19.84</ele>
        <time>2016-04-22T08:01:40Z</time>
      </trkpt>
      <trkpt lat="43.29486" lon="5.37404">
        <ele>18.4</ele>
        <time>2016-04-22T08:01:56Z</time>
      </trkpt>
      <trkpt lat="43.2951" lon="5.374">
        <ele>16</ele>
        <time>2016-04-22T08:02:11Z</time>
      </trkpt>
      <trkpt lat="43.29531" lon="5.3739">
        <ele>13.12</ele>
        <time>2016-04-22T08:02:31Z</time>
      </trkpt>
      <trkpt lat="43.29536" lon="5.37389">
        <ele>12.15</ele>
        <time>2016-04-22T08:02:36Z</time>
      </trkpt>
      <trkpt lat="43.29558" lon="5.37383">
        <ele>10.71</ele>
        <time>2016-04-22T08:02:55Z</time>
      </trkpt>
      <trkpt lat="43.29572" lon="5.37379">
        <ele>15.04</ele>
        <time>2016-04-22T08:03:14Z</time>
      </trkpt>
      <trkpt lat="43.29574" lon="5.37371">
        <ele>13.6</ele>
        <time>2016-04-22T08:03:35Z</time>
      </trkpt>
      <trkpt lat="43.29588" lon="5.37371">
        <ele>14.56</ele>
        <time>2016-04-22T08:03:50Z</time>
      </trkpt>
      <trkpt lat="43.29592" lon="5.37367">
        <ele>15.04</ele>
        <time>2016-04-22T08:03:55Z</time>
      </trkpt>
      <trkpt lat="43.29602" lon="5.37338">
        <ele>14.08</ele>
        <time>2016-04-22T08:04:15Z</time>
      </trkpt>
      <trkpt lat="43.29611" lon="5.37311">
        <ele>13.12</ele>
        <time>2016-04-22T08:04:34Z</time>
      </trkpt>
      <trkpt lat="43.29623" lon="5.37287">
        <ele>13.6</ele>
        <time>2016-04-22T08:04:52Z</time>
      </trkpt>
      <trkpt lat="43.29617" lon="5.37251">
        <ele>7.35</ele>
        <time>2016-04-22T08:05:12Z</time>
      </trkpt>
      <trkpt lat="43.29618" lon="5.37226">
        <ele>6.87</ele>
        <time>2016-04-22T08:05:30Z</time>
      </trkpt>
      <trkpt lat="43.29613" lon="5.37199">
        <ele>4.94</ele>
        <time>2016-04-22T08:05:48Z</time>
      </trkpt>
      <trkpt lat="43.29611" lon="5.37178">
        <ele>4.94</ele>
        <time>2016-04-22T08:06:02Z</time>
      </trkpt>
      <trkpt lat="43.29606" lon="5.37157">
        <ele>5.91</ele>
        <time>2016-04-22T08:06:16Z</time>
      </trkpt>
      <trkpt lat="43.29606" lon="5.37126">
        <ele>4.46</ele>
        <time>2016-04-22T08:06:36Z</time>
      </trkpt>
      <trkpt lat="43.29601" lon="5.3709">
        <ele>3.5</ele>
        <time>2016-04-22T08:06:59Z</time>
      </trkpt>
      <trkpt lat="43.29599" lon="5.37058">
        <ele>2.54</ele>
        <time>2016-04-22T08:07:19Z</time>
      </trkpt>
      <trkpt lat="43.29597" lon="5.3703">
        <ele>3.5</ele>
        <time>2016-04-22T08:07:38Z</time>
      </trkpt>
      <trkpt lat="43.29594" lon="5.37004">
        <ele>3.5</ele>
        <time>2016-04-22T08:07:57Z</time>
      </trkpt>
      <trkpt lat="43.29592" lon="5.36993">
        <ele>3.02</ele>
        <time>2016-04-22T08:08:13Z</time>
      </trkpt>
      <trkpt lat="43.29596" lon="5.36965">
        <ele>5.42</ele>
        <time>2016-04-22T08:08:33Z</time>
      </trkpt>
      <trkpt lat="43.29596" lon="5.36935">
        <ele>3.5</ele>
        <time>2016-04-22T08:08:52Z</time>
      </trkpt>
      <trkpt lat="43.29594" lon="5.36917">
        <ele>2.06</ele>
        <time>2016-04-22T08:09:05Z</time>
      </trkpt>
      <trkpt lat="43.29591" lon="5.36893">
        <ele>3.5</ele>
        <time>2016-04-22T08:09:22Z</time>
      </trkpt>
      <trkpt lat="43.29588" lon="5.36869">
        <ele>5.91</ele>
        <time>2016-04-22T08:09:39Z</time>
      </trkpt>
      <trkpt lat="43.29587" lon="5.36839">
        <ele>7.83</ele>
        <time>2016-04-22T08:09:59Z</time>
      </trkpt>
      <trkpt lat="43.29583" lon="5.36813">
        <ele>6.87</ele>
        <time>2016-04-22T08:10:17Z</time>
      </trkpt>
      <trkpt lat="43.2958" lon="5.36789">
        <ele>7.35</ele>
        <time>2016-04-22T08:10:34Z</time>
      </trkpt>
      <trkpt lat="43.29575" lon="5.36761">
        <ele>5.91</ele>
        <time>2016-04-22T08:10:52Z</time>
      </trkpt>
      <trkpt lat="43.29572" lon="5.36745">
        <ele>5.42</ele>
        <time>2016-04-22T08:11:03Z</time>
      </trkpt>
      <trkpt lat="43.29567" lon="5.36721">
        <ele>5.91</ele>
        <time>2016-04-22T08:11:21Z</time>
      </trkpt>
      <trkpt lat="43.29564" lon="5.36696">
        <ele>6.87</ele>
        <time>2016-04-22T08:11:39Z</time>
      </trkpt>
      <trkpt lat="43.29557" lon="5.36664">
        <ele>5.91</ele>
        <time>2016-04-22T08:12:01Z</time>
      </trkpt>
      <trkpt lat="43.29552" lon="5.36648">
        <ele>6.39</ele>
        <time>2016-04-22T08:12:12Z</time>
      </trkpt>
      <trkpt lat="43.29551" lon="5.36635">
        <ele>6.39</ele>
        <time>2016-04-22T08:12:22Z</time>
      </trkpt>
      <trkpt lat="43.29549" lon="5.36625">
        <ele>6.87</ele>
        <time>2016-04-22T08:12:29Z</time>
      </trkpt>
      <trkpt lat="43.29547" lon="5.36618">
        <ele>6.87</ele>
        <time>2016-04-22T08:12:34Z</time>
      </trkpt>
      <trkpt lat="43.29541" lon="5.36593">
        <ele>6.87</ele>
        <time>2016-04-22T08:12:53Z</time>
      </trkpt>
      <trkpt lat="43.29536" lon="5.36566">
        <ele>7.83</ele>
        <time>2016-04-22T08:13:12Z</time>
      </trkpt>
      <trkpt lat="43.2953" lon="5.36533">
        <ele>5.91</ele>
        <time>2016-04-22T08:13:33Z</time>
      </trkpt>
      <trkpt lat="43.29526" lon="5.36503">
        <ele>3.98</ele>
        <time>2016-04-22T08:13:54Z</time>
      </trkpt>
      <trkpt lat="43.29525" lon="5.36488">
        <ele>3.02</ele>
        <time>2016-04-22T08:14:12Z</time>
      </trkpt>
      <trkpt lat="43.29527" lon="5.36489">
        <ele>3.98</ele>
        <time>2016-04-22T08:14:19Z</time>
      </trkpt>
      <trkpt lat="43.29529" lon="5.36504">
        <ele>5.91</ele>
        <time>2016-04-22T08:14:32Z</time>
      </trkpt>
      <trkpt lat="43.29531" lon="5.36511">
        <ele>6.39</ele>
        <time>2016-04-22T08:14:37Z</time>
      </trkpt>
      <trkpt lat="43.29534" lon="5.36528">
        <ele>5.91</ele>
        <time>2016-04-22T08:14:52Z</time>
      </trkpt>
      <trkpt lat="43.29536" lon="5.36529">
        <ele>5.91</ele>
        <time>2016-04-22T08:14:57Z</time>
      </trkpt>
      <trkpt lat="43.29547" lon="5.36521">
        <ele>5.91</ele>
        <time>2016-04-22T08:15:11Z</time>
      </trkpt>
      <trkpt lat="43.29552" lon="5.36516">
        <ele>5.91</ele>
        <time>2016-04-22T08:15:32Z</time>
      </trkpt>
      <trkpt lat="43.29549" lon="5.3652">
        <ele>5.42</ele>
        <time>2016-04-22T08:16:14Z</time>
      </trkpt>
      <trkpt lat="43.29548" lon="5.36518">
        <ele>5.91</ele>
        <time>2016-04-22T08:16:25Z</time>
      </trkpt>
      <trkpt lat="43.29546" lon="5.365">
        <ele>6.87</ele>
        <time>2016-04-22T08:16:38Z</time>
      </trkpt>
      <trkpt lat="43.29548" lon="5.36494">
        <ele>6.39</ele>
        <time>2016-04-22T08:16:41Z</time>
      </trkpt>
      <trkpt lat="43.29546" lon="5.36487">
        <ele>6.39</ele>
        <time>2016-04-22T08:16:45Z</time>
      </trkpt>
      <trkpt lat="43.29543" lon="5.3646">
        <ele>4.94</ele>
        <time>2016-04-22T08:17:02Z</time>
      </trkpt>
      <trkpt lat="43.29539" lon="5.36447">
        <ele>6.87</ele>
        <time>2016-04-22T08:17:11Z</time>
      </trkpt>
      <trkpt lat="43.29538" lon="5.36421">
        <ele>9.27</ele>
        <time>2016-04-22T08:17:27Z</time>
      </trkpt>
      <trkpt lat="43.29536" lon="5.36409">
        <ele>12.63</ele>
        <time>2016-04-22T08:17:42Z</time>
      </trkpt>
      <trkpt lat="43.29537" lon="5.36408">
        <ele>12.63</ele>
        <time>2016-04-22T08:17:43Z</time>
      </trkpt>
      <trkpt lat="43.29545" lon="5.36383">
        <ele>13.12</ele>
        <time>2016-04-22T08:18:00Z</time>
      </trkpt>
      <trkpt lat="43.29545" lon="5.36364">
        <ele>13.12</ele>
        <time>2016-04-22T08:18:16Z</time>
      </trkpt>
      <trkpt lat="43.29546" lon="5.36365">
        <ele>13.6</ele>
        <time>2016-04-22T08:18:35Z</time>
      </trkpt>
      <trkpt lat="43.29544" lon="5.36364">
        <ele>12.15</ele>
        <time>2016-04-22T08:18:54Z</time>
      </trkpt>
      <trkpt lat="43.2954" lon="5.36362">
        <ele>14.08</ele>
        <time>2016-04-22T08:19:10Z</time>
      </trkpt>
      <trkpt lat="43.29542" lon="5.36361">
        <ele>14.56</ele>
        <time>2016-04-22T08:19:22Z</time>
      </trkpt>
      <trkpt lat="43.29545" lon="5.3636">
        <ele>15.52</ele>
        <time>2016-04-22T08:19:25Z</time>
      </trkpt>
      <trkpt lat="43.29559" lon="5.36372">
        <ele>16</ele>
        <time>2016-04-22T08:19:41Z</time>
      </trkpt>
      <trkpt lat="43.29561" lon="5.36373">
        <ele>16.48</ele>
        <time>2016-04-22T08:19:42Z</time>
      </trkpt>
      <trkpt lat="43.29562" lon="5.36366">
        <ele>16</ele>
        <time>2016-04-22T08:19:56Z</time>
      </trkpt>
      <trkpt lat="43.29559" lon="5.36354">
        <ele>18.88</ele>
        <time>2016-04-22T08:20:10Z</time>
      </trkpt>
      <trkpt lat="43.29562" lon="5.3635">
        <ele>18.88</ele>
        <time>2016-04-22T08:20:16Z</time>
      </trkpt>
      <trkpt lat="43.2957" lon="5.36325">
        <ele>21.77</ele>
        <time>2016-04-22T08:20:37Z</time>
      </trkpt>
      <trkpt lat="43.2957" lon="5.36322">
        <ele>23.69</ele>
        <time>2016-04-22T08:20:54Z</time>
      </trkpt>
      <trkpt lat="43.29572" lon="5.36317">
        <ele>25.13</ele>
        <time>2016-04-22T08:21:09Z</time>
      </trkpt>
      <trkpt lat="43.29574" lon="5.36313">
        <ele>24.65</ele>
        <time>2016-04-22T08:21:12Z</time>
      </trkpt>
      <trkpt lat="43.29581" lon="5.36308">
        <ele>24.65</ele>
        <time>2016-04-22T08:21:20Z</time>
      </trkpt>
      <trkpt lat="43.29596" lon="5.36301">
        <ele>23.69</ele>
        <time>2016-04-22T08:21:35Z</time>
      </trkpt>
      <trkpt lat="43.29613" lon="5.36299">
        <ele>22.73</ele>
        <time>2016-04-22T08:21:53Z</time>
      </trkpt>
      <trkpt lat="43.29632" lon="5.36303">
        <ele>25.13</ele>
        <time>2016-04-22T08:22:12Z</time>
      </trkpt>
      <trkpt lat="43.2965" lon="5.36315">
        <ele>24.65</ele>
        <time>2016-04-22T08:22:32Z</time>
      </trkpt>
      <trkpt lat="43.29664" lon="5.36327">
        <ele>26.09</ele>
        <time>2016-04-22T08:22:48Z</time>
      </trkpt>
      <trkpt lat="43.29681" lon="5.36343">
        <ele>25.13</ele>
        <time>2016-04-22T08:23:07Z</time>
      </trkpt>
      <trkpt lat="43.29693" lon="5.36356">
        <ele>27.05</ele>
        <time>2016-04-22T08:23:24Z</time>
      </trkpt>
      <trkpt lat="43.29702" lon="5.3636">
        <ele>28.02</ele>
        <time>2016-04-22T08:23:33Z</time>
      </trkpt>
      <trkpt lat="43.29722" lon="5.36376">
        <ele>31.38</ele>
        <time>2016-04-22T08:23:54Z</time>
      </trkpt>
      <trkpt lat="43.29736" lon="5.36388">
        <ele>33.3</ele>
        <time>2016-04-22T08:24:10Z</time>
      </trkpt>
      <trkpt lat="43.29744" lon="5.36397">
        <ele>29.46</ele>
        <time>2016-04-22T08:24:23Z</time>
      </trkpt>
      <trkpt lat="43.29756" lon="5.36405">
        <ele>28.98</ele>
        <time>2016-04-22T08:24:38Z</time>
      </trkpt>
      <trkpt lat="43.29769" lon="5.36415">
        <ele>29.94</ele>
        <time>2016-04-22T08:24:52Z</time>
      </trkpt>
      <trkpt lat="43.29782" lon="5.36424">
        <ele>29.94</ele>
        <time>2016-04-22T08:25:05Z</time>
      </trkpt>
      <trkpt lat="43.29802" lon="5.36441">
        <ele>26.09</ele>
        <time>2016-04-22T08:25:22Z</time>
      </trkpt>
      <trkpt lat="43.29819" lon="5.36453">
        <ele>23.21</ele>
        <time>2016-04-22T08:25:39Z</time>
      </trkpt>
      <trkpt lat="43.29821" lon="5.36454">
        <ele>23.21</ele>
        <time>2016-04-22T08:25:41Z</time>
      </trkpt>
      <trkpt lat="43.29829" lon="5.36457">
        <ele>19.36</ele>
        <time>2016-04-22T08:25:56Z</time>
      </trkpt>
      <trkpt lat="43.29828" lon="5.36456">
        <ele>19.36</ele>
        <time>2016-04-22T08:25:59Z</time>
      </trkpt>
      <trkpt lat="43.29825" lon="5.36457">
        <ele>19.36</ele>
        <time>2016-04-22T08:26:05Z</time>
      </trkpt>
      <trkpt lat="43.29827" lon="5.36465">
        <ele>19.84</ele>
        <time>2016-04-22T08:26:12Z</time>
      </trkpt>
      <trkpt lat="43.29837" lon="5.36475">
        <ele>20.32</ele>
        <time>2016-04-22T08:26:28Z</time>
      </trkpt>
      <trkpt lat="43.2984" lon="5.36477">
        <ele>20.32</ele>
        <time>2016-04-22T08:26:31Z</time>
      </trkpt>
      <trkpt lat="43.29855" lon="5.36483">
        <ele>21.29</ele>
        <time>2016-04-22T08:26:48Z</time>
      </trkpt>
      <trkpt lat="43.29863" lon="5.36476">
        <ele>18.4</ele>
        <time>2016-04-22T08:27:05Z</time>
      </trkpt>
      <trkpt lat="43.29866" lon="5.36471">
        <ele>18.88</ele>
        <time>2016-04-22T08:27:10Z</time>
      </trkpt>
      <trkpt lat="43.2987" lon="5.36469">
        <ele>18.88</ele>
        <time>2016-04-22T08:27:14Z</time>
      </trkpt>
      <trkpt lat="43.29893" lon="5.36471">
        <ele>16.48</ele>
        <time>2016-04-22T08:27:34Z</time>
      </trkpt>
      <trkpt lat="43.2991" lon="5.36469">
        <ele>15.52</ele>
        <time>2016-04-22T08:27:51Z</time>
      </trkpt>
      <trkpt lat="43.29918" lon="5.36471">
        <ele>17.44</ele>
        <time>2016-04-22T08:28:06Z</time>
      </trkpt>
      <trkpt lat="43.29922" lon="5.36461">
        <ele>18.88</ele>
        <time>2016-04-22T08:28:24Z</time>
      </trkpt>
      <trkpt lat="43.29946" lon="5.36481">
        <ele>19.84</ele>
        <time>2016-04-22T08:29:33Z</time>
      </trkpt>
      <trkpt lat="43.29948" lon="5.36482">
        <ele>20.32</ele>
        <time>2016-04-22T08:29:47Z</time>
      </trkpt>
      <trkpt lat="43.29956" lon="5.36486">
        <ele>20.81</ele>
        <time>2016-04-22T08:30:08Z</time>
      </trkpt>
      <trkpt lat="43.29904" lon="5.36474">
        <ele>22.25</ele>
        <time>2016-04-22T08:34:51Z</time>
      </trkpt>
      <trkpt lat="43.29918" lon="5.36464">
        <ele>14.08</ele>
        <time>2016-04-22T08:35:06Z</time>
      </trkpt>
      <trkpt lat="43.29912" lon="5.36463">
        <ele>16</ele>
        <time>2016-04-22T08:35:19Z</time>
      </trkpt>
      <trkpt lat="43.29911" lon="5.36463">
        <ele>16</ele>
        <time>2016-04-22T08:35:20Z</time>
      </trkpt>
      <trkpt lat="43.29901" lon="5.36484">
        <ele>15.52</ele>
        <time>2016-04-22T08:35:37Z</time>
      </trkpt>
      <trkpt lat="43.29898" lon="5.36495">
        <ele>16.48</ele>
        <time>2016-04-22T08:35:53Z</time>
      </trkpt>
      <trkpt lat="43.29894" lon="5.36498">
        <ele>19.36</ele>
        <time>2016-04-22T08:36:08Z</time>
      </trkpt>
      <trkpt lat="43.29894" lon="5.36514">
        <ele>20.81</ele>
        <time>2016-04-22T08:36:21Z</time>
      </trkpt>
      <trkpt lat="43.2989" lon="5.36526">
        <ele>19.84</ele>
        <time>2016-04-22T08:36:32Z</time>
      </trkpt>
      <trkpt lat="43.29886" lon="5.36533">
        <ele>18.88</ele>
        <time>2016-04-22T08:36:50Z</time>
      </trkpt>
      <trkpt lat="43.29884" lon="5.36546">
        <ele>18.88</ele>
        <time>2016-04-22T08:37:03Z</time>
      </trkpt>
      <trkpt lat="43.29883" lon="5.36554">
        <ele>18.88</ele>
        <time>2016-04-22T08:37:09Z</time>
      </trkpt>
      <trkpt lat="43.29884" lon="5.36564">
        <ele>19.36</ele>
        <time>2016-04-22T08:37:20Z</time>
      </trkpt>
      <trkpt lat="43.29881" lon="5.3658">
        <ele>20.81</ele>
        <time>2016-04-22T08:37:32Z</time>
      </trkpt>
      <trkpt lat="43.2988" lon="5.366">
        <ele>20.32</ele>
        <time>2016-04-22T08:37:46Z</time>
      </trkpt>
      <trkpt lat="43.29871" lon="5.36619">
        <ele>20.32</ele>
        <time>2016-04-22T08:38:01Z</time>
      </trkpt>
      <trkpt lat="43.29872" lon="5.36629">
        <ele>19.84</ele>
        <time>2016-04-22T08:38:09Z</time>
      </trkpt>
      <trkpt lat="43.29868" lon="5.3664">
        <ele>21.29</ele>
        <time>2016-04-22T08:38:22Z</time>
      </trkpt>
      <trkpt lat="43.29863" lon="5.3664">
        <ele>26.09</ele>
        <time>2016-04-22T08:38:41Z</time>
      </trkpt>
      <trkpt lat="43.29864" lon="5.36646">
        <ele>29.94</ele>
        <time>2016-04-22T08:38:59Z</time>
      </trkpt>
      <trkpt lat="43.29865" lon="5.36672">
        <ele>29.46</ele>
        <time>2016-04-22T08:39:20Z</time>
      </trkpt>
      <trkpt lat="43.29865" lon="5.36678">
        <ele>33.3</ele>
        <time>2016-04-22T08:39:34Z</time>
      </trkpt>
      <trkpt lat="43.29866" lon="5.36686">
        <ele>34.74</ele>
        <time>2016-04-22T08:39:51Z</time>
      </trkpt>
      <trkpt lat="43.29863" lon="5.36694">
        <ele>33.78</ele>
        <time>2016-04-22T08:40:08Z</time>
      </trkpt>
      <trkpt lat="43.29857" lon="5.36706">
        <ele>32.34</ele>
        <time>2016-04-22T08:40:22Z</time>
      </trkpt>
      <trkpt lat="43.29854" lon="5.36713">
        <ele>33.78</ele>
        <time>2016-04-22T08:40:31Z</time>
      </trkpt>
      <trkpt lat="43.29851" lon="5.36727">
        <ele>36.19</ele>
        <time>2016-04-22T08:40:46Z</time>
      </trkpt>
      <trkpt lat="43.29852" lon="5.36741">
        <ele>37.15</ele>
        <time>2016-04-22T08:40:59Z</time>
      </trkpt>
      <trkpt lat="43.29848" lon="5.36748">
        <ele>35.23</ele>
        <time>2016-04-22T08:41:08Z</time>
      </trkpt>
      <trkpt lat="43.29848" lon="5.36749">
        <ele>34.74</ele>
        <time>2016-04-22T08:41:18Z</time>
      </trkpt>
      <trkpt lat="43.29855" lon="5.36754">
        <ele>35.71</ele>
        <time>2016-04-22T08:41:34Z</time>
      </trkpt>
      <trkpt lat="43.29868" lon="5.36777">
        <ele>40.03</ele>
        <time>2016-04-22T08:41:55Z</time>
      </trkpt>
      <trkpt lat="43.29871" lon="5.36778">
        <ele>40.99</ele>
        <time>2016-04-22T08:42:10Z</time>
      </trkpt>
      <trkpt lat="43.29874" lon="5.3679">
        <ele>41.95</ele>
        <time>2016-04-22T08:42:31Z</time>
      </trkpt>
      <trkpt lat="43.29872" lon="5.36799">
        <ele>46.28</ele>
        <time>2016-04-22T08:42:46Z</time>
      </trkpt>
      <trkpt lat="43.29873" lon="5.3681">
        <ele>43.88</ele>
        <time>2016-04-22T08:43:03Z</time>
      </trkpt>
      <trkpt lat="43.29888" lon="5.36819">
        <ele>42.44</ele>
        <time>2016-04-22T08:43:22Z</time>
      </trkpt>
      <trkpt lat="43.29907" lon="5.3682">
        <ele>44.36</ele>
        <time>2016-04-22T08:43:44Z</time>
      </trkpt>
      <trkpt lat="43.29903" lon="5.36818">
        <ele>44.36</ele>
        <time>2016-04-22T08:44:12Z</time>
      </trkpt>
      <trkpt lat="43.29921" lon="5.36824">
        <ele>46.76</ele>
        <time>2016-04-22T08:44:29Z</time>
      </trkpt>
      <trkpt lat="43.29936" lon="5.36823">
        <ele>45.8</ele>
        <time>2016-04-22T08:44:47Z</time>
      </trkpt>
      <trkpt lat="43.29958" lon="5.36824">
        <ele>49.16</ele>
        <time>2016-04-22T08:45:09Z</time>
      </trkpt>
      <trkpt lat="43.29987" lon="5.36822">
        <ele>46.76</ele>
        <time>2016-04-22T08:45:35Z</time>
      </trkpt>
      <trkpt lat="43.29991" lon="5.36814">
        <ele>40.51</ele>
        <time>2016-04-22T08:45:51Z</time>
      </trkpt>
      <trkpt lat="43.29993" lon="5.36828">
        <ele>35.71</ele>
        <time>2016-04-22T08:46:11Z</time>
      </trkpt>
      <trkpt lat="43.29998" lon="5.36846">
        <ele>37.15</ele>
        <time>2016-04-22T08:46:28Z</time>
      </trkpt>
      <trkpt lat="43.29997" lon="5.36866">
        <ele>40.51</ele>
        <time>2016-04-22T08:46:47Z</time>
      </trkpt>
      <trkpt lat="43.2999" lon="5.36895">
        <ele>44.36</ele>
        <time>2016-04-22T08:47:08Z</time>
      </trkpt>
      <trkpt lat="43.29992" lon="5.36904">
        <ele>48.68</ele>
        <time>2016-04-22T08:47:24Z</time>
      </trkpt>
      <trkpt lat="43.29994" lon="5.36925">
        <ele>61.18</ele>
        <time>2016-04-22T08:47:41Z</time>
      </trkpt>
      <trkpt lat="43.30001" lon="5.36951">
        <ele>57.82</ele>
        <time>2016-04-22T08:47:57Z</time>
      </trkpt>
      <trkpt lat="43.30016" lon="5.36944">
        <ele>54.93</ele>
        <time>2016-04-22T08:48:11Z</time>
      </trkpt>
      <trkpt lat="43.30033" lon="5.36932">
        <ele>41.47</ele>
        <time>2016-04-22T08:48:29Z</time>
      </trkpt>
      <trkpt lat="43.30043" lon="5.3692">
        <ele>41.47</ele>
        <time>2016-04-22T08:48:48Z</time>
      </trkpt>
      <trkpt lat="43.30048" lon="5.36919">
        <ele>44.36</ele>
        <time>2016-04-22T08:49:02Z</time>
      </trkpt>
      <trkpt lat="43.30059" lon="5.36912">
        <ele>46.76</ele>
        <time>2016-04-22T08:49:12Z</time>
      </trkpt>
      <trkpt lat="43.30068" lon="5.36907">
        <ele>39.07</ele>
        <time>2016-04-22T08:49:29Z</time>
      </trkpt>
      <trkpt lat="43.30077" lon="5.36889">
        <ele>36.19</ele>
        <time>2016-04-22T08:49:44Z</time>
      </trkpt>
      <trkpt lat="43.30084" lon="5.36874">
        <ele>32.82</ele>
        <time>2016-04-22T08:49:59Z</time>
      </trkpt>
      <trkpt lat="43.30082" lon="5.36861">
        <ele>30.42</ele>
        <time>2016-04-22T08:50:13Z</time>
      </trkpt>
      <trkpt lat="43.30078" lon="5.36857">
        <ele>29.46</ele>
        <time>2016-04-22T08:50:27Z</time>
      </trkpt>
      <trkpt lat="43.30062" lon="5.36848">
        <ele>29.46</ele>
        <time>2016-04-22T08:50:42Z</time>
      </trkpt>
      <trkpt lat="43.30048" lon="5.36837">
        <ele>35.23</ele>
        <time>2016-04-22T08:50:58Z</time>
      </trkpt>
      <trkpt lat="43.30038" lon="5.36838">
        <ele>38.11</ele>
        <time>2016-04-22T08:51:13Z</time>
      </trkpt>
      <trkpt lat="43.3003" lon="5.36835">
        <ele>35.23</ele>
        <time>2016-04-22T08:51:30Z</time>
      </trkpt>
      <trkpt lat="43.29999" lon="5.36833">
        <ele>38.11</ele>
        <time>2016-04-22T08:51:53Z</time>
      </trkpt>
      <trkpt lat="43.30002" lon="5.36823">
        <ele>36.19</ele>
        <time>2016-04-22T08:52:09Z</time>
      </trkpt>
      <trkpt lat="43.30001" lon="5.3679">
        <ele>36.19</ele>
        <time>2016-04-22T08:52:28Z</time>
      </trkpt>
      <trkpt lat="43.30015" lon="5.36786">
        <ele>39.55</ele>
        <time>2016-04-22T08:52:42Z</time>
      </trkpt>
      <trkpt lat="43.30016" lon="5.36786">
        <ele>40.03</ele>
        <time>2016-04-22T08:52:43Z</time>
      </trkpt>
      <trkpt lat="43.30024" lon="5.36792">
        <ele>43.4</ele>
        <time>2016-04-22T08:52:59Z</time>
      </trkpt>
      <trkpt lat="43.30028" lon="5.36785">
        <ele>50.13</ele>
        <time>2016-04-22T08:53:21Z</time>
      </trkpt>
      <trkpt lat="43.30028" lon="5.36779">
        <ele>52.05</ele>
        <time>2016-04-22T08:53:36Z</time>
      </trkpt>
      <trkpt lat="43.30032" lon="5.36778">
        <ele>55.41</ele>
        <time>2016-04-22T08:53:51Z</time>
      </trkpt>
      <trkpt lat="43.30037" lon="5.36778">
        <ele>60.22</ele>
        <time>2016-04-22T08:54:05Z</time>
      </trkpt>
      <trkpt lat="43.30052" lon="5.36779">
        <ele>63.58</ele>
        <time>2016-04-22T08:54:21Z</time>
      </trkpt>
      <trkpt lat="43.30058" lon="5.36777">
        <ele>65.99</ele>
        <time>2016-04-22T08:54:37Z</time>
      </trkpt>
      <trkpt lat="43.30081" lon="5.3679">
        <ele>60.7</ele>
        <time>2016-04-22T08:55:00Z</time>
      </trkpt>
      <trkpt lat="43.30082" lon="5.36792">
        <ele>61.66</ele>
        <time>2016-04-22T08:55:02Z</time>
      </trkpt>
      <trkpt lat="43.30077" lon="5.36803">
        <ele>60.7</ele>
        <time>2016-04-22T08:55:20Z</time>
      </trkpt>
      <trkpt lat="43.3007" lon="5.36807">
        <ele>50.13</ele>
        <time>2016-04-22T08:55:38Z</time>
      </trkpt>
      <trkpt lat="43.30067" lon="5.36806">
        <ele>46.76</ele>
        <time>2016-04-22T08:55:51Z</time>
      </trkpt>
      <trkpt lat="43.30058" lon="5.3679">
        <ele>46.28</ele>
        <time>2016-04-22T08:56:37Z</time>
      </trkpt>
      <trkpt lat="43.30051" lon="5.36797">
        <ele>41.95</ele>
        <time>2016-04-22T08:56:57Z</time>
      </trkpt>
      <trkpt lat="43.30044" lon="5.3679">
        <ele>41.95</ele>
        <time>2016-04-22T08:57:21Z</time>
      </trkpt>
      <trkpt lat="43.30045" lon="5.36789">
        <ele>40.99</ele>
        <time>2016-04-22T08:58:06Z</time>
      </trkpt>
      <trkpt lat="43.30033" lon="5.36792">
        <ele>46.76</ele>
        <time>2016-04-22T08:58:36Z</time>
      </trkpt>
      <trkpt lat="43.30035" lon="5.36792">
        <ele>48.68</ele>
        <time>2016-04-22T08:59:00Z</time>
      </trkpt>
      <trkpt lat="43.30033" lon="5.36782">
        <ele>48.2</ele>
        <time>2016-04-22T08:59:06Z</time>
      </trkpt>
      <trkpt lat="43.30026" lon="5.36784">
        <ele>47.72</ele>
        <time>2016-04-22T08:59:23Z</time>
      </trkpt>
      <trkpt lat="43.30014" lon="5.36782">
        <ele>51.09</ele>
        <time>2016-04-22T08:59:42Z</time>
      </trkpt>
      <trkpt lat="43.30007" lon="5.36778">
        <ele>42.44</ele>
        <time>2016-04-22T09:00:04Z</time>
      </trkpt>
      <trkpt lat="43.30001" lon="5.36787">
        <ele>39.07</ele>
        <time>2016-04-22T09:00:19Z</time>
      </trkpt>
      <trkpt lat="43.3" lon="5.36797">
        <ele>32.82</ele>
        <time>2016-04-22T09:00:35Z</time>
      </trkpt>
      <trkpt lat="43.29998" lon="5.36799">
        <ele>25.61</ele>
        <time>2016-04-22T09:00:50Z</time>
      </trkpt>
      <trkpt lat="43.29996" lon="5.368">
        <ele>14.08</ele>
        <time>2016-04-22T09:01:17Z</time>
      </trkpt>
      <trkpt lat="43.29988" lon="5.36803">
        <ele>14.08</ele>
        <time>2016-04-22T09:01:50Z</time>
      </trkpt>
      <trkpt lat="43.29995" lon="5.36803">
        <ele>13.12</ele>
        <time>2016-04-22T09:02:18Z</time>
      </trkpt>
      <trkpt lat="43.29998" lon="5.36806">
        <ele>18.4</ele>
        <time>2016-04-22T09:02:43Z</time>
      </trkpt>
      <trkpt lat="43.29999" lon="5.36807">
        <ele>18.88</ele>
        <time>2016-04-22T09:03:15Z</time>
      </trkpt>
      <trkpt lat="43.29995" lon="5.36808">
        <ele>23.69</ele>
        <time>2016-04-22T09:03:41Z</time>
      </trkpt>
      <trkpt lat="43.29996" lon="5.36807">
        <ele>29.94</ele>
        <time>2016-04-22T09:04:08Z</time>
      </trkpt>
      <trkpt lat="43.29997" lon="5.36805">
        <ele>31.38</ele>
        <time>2016-04-22T09:04:34Z</time>
      </trkpt>
      <trkpt lat="43.3" lon="5.36806">
        <ele>36.19</ele>
        <time>2016-04-22T09:05:04Z</time>
      </trkpt>
      <trkpt lat="43.30001" lon="5.36805">
        <ele>34.26</ele>
        <time>2016-04-22T09:05:33Z</time>
      </trkpt>
      <trkpt lat="43.30002" lon="5.36806">
        <ele>36.19</ele>
        <time>2016-04-22T09:06:01Z</time>
      </trkpt>
      <trkpt lat="43.30002" lon="5.36807">
        <ele>40.03</ele>
        <time>2016-04-22T09:06:23Z</time>
      </trkpt>
      <trkpt lat="43.30003" lon="5.36806">
        <ele>39.55</ele>
        <time>2016-04-22T09:06:47Z</time>
      </trkpt>
      <trkpt lat="43.30005" lon="5.36805">
        <ele>33.3</ele>
        <time>2016-04-22T09:07:18Z</time>
      </trkpt>
      <trkpt lat="43.30001" lon="5.36806">
        <ele>30.42</ele>
        <time>2016-04-22T09:07:40Z</time>
      </trkpt>
      <trkpt lat="43.3" lon="5.36807">
        <ele>40.03</ele>
        <time>2016-04-22T09:08:04Z</time>
      </trkpt>
      <trkpt lat="43.29999" lon="5.36808">
        <ele>37.63</ele>
        <time>2016-04-22T09:08:23Z</time>
      </trkpt>
      <trkpt lat="43.3" lon="5.36807">
        <ele>31.86</ele>
        <time>2016-04-22T09:08:45Z</time>
      </trkpt>
      <trkpt lat="43.3" lon="5.36806">
        <ele>29.94</ele>
        <time>2016-04-22T09:09:10Z</time>
      </trkpt>
      <trkpt lat="43.30001" lon="5.36807">
        <ele>30.9</ele>
        <time>2016-04-22T09:09:33Z</time>
      </trkpt>
      <trkpt lat="43.3" lon="5.36808">
        <ele>31.38</ele>
        <time>2016-04-22T09:10:05Z</time>
      </trkpt>
      <trkpt lat="43.30004" lon="5.36808">
        <ele>46.76</ele>
        <time>2016-04-22T09:10:31Z</time>
      </trkpt>
      <trkpt lat="43.30002" lon="5.36807">
        <ele>49.65</ele>
        <time>2016-04-22T09:11:00Z</time>
      </trkpt>
      <trkpt lat="43.30002" lon="5.36805">
        <ele>43.88</ele>
        <time>2016-04-22T09:11:13Z</time>
      </trkpt>
      <trkpt lat="43.29998" lon="5.36801">
        <ele>41.95</ele>
        <time>2016-04-22T09:11:25Z</time>
      </trkpt>
      <trkpt lat="43.29989" lon="5.36795">
        <ele>40.03</ele>
        <time>2016-04-22T09:11:40Z</time>
      </trkpt>
      <trkpt lat="43.29987" lon="5.36794">
        <ele>40.03</ele>
        <time>2016-04-22T09:11:43Z</time>
      </trkpt>
      <trkpt lat="43.29974" lon="5.36783">
        <ele>40.03</ele>
        <time>2016-04-22T09:11:59Z</time>
      </trkpt>
      <trkpt lat="43.29958" lon="5.36778">
        <ele>39.55</ele>
        <time>2016-04-22T09:12:16Z</time>
      </trkpt>
      <trkpt lat="43.29941" lon="5.36776">
        <ele>39.07</ele>
        <time>2016-04-22T09:12:34Z</time>
      </trkpt>
      <trkpt lat="43.29942" lon="5.36783">
        <ele>40.51</ele>
        <time>2016-04-22T09:12:46Z</time>
      </trkpt>
      <trkpt lat="43.29946" lon="5.36791">
        <ele>41.47</ele>
        <time>2016-04-22T09:12:55Z</time>
      </trkpt>
      <trkpt lat="43.2994" lon="5.36807">
        <ele>38.11</ele>
        <time>2016-04-22T09:13:10Z</time>
      </trkpt>
      <trkpt lat="43.2993" lon="5.36821">
        <ele>35.71</ele>
        <time>2016-04-22T09:13:27Z</time>
      </trkpt>
      <trkpt lat="43.2993" lon="5.3683">
        <ele>38.59</ele>
        <time>2016-04-22T09:13:42Z</time>
      </trkpt>
      <trkpt lat="43.29933" lon="5.3685">
        <ele>40.99</ele>
        <time>2016-04-22T09:14:00Z</time>
      </trkpt>
      <trkpt lat="43.29922" lon="5.36864">
        <ele>41.95</ele>
        <time>2016-04-22T09:14:17Z</time>
      </trkpt>
      <trkpt lat="43.29924" lon="5.3688">
        <ele>42.92</ele>
        <time>2016-04-22T09:14:36Z</time>
      </trkpt>
      <trkpt lat="43.29923" lon="5.36903">
        <ele>44.36</ele>
        <time>2016-04-22T09:14:57Z</time>
      </trkpt>
      <trkpt lat="43.29924" lon="5.36902">
        <ele>43.4</ele>
        <time>2016-04-22T09:15:15Z</time>
      </trkpt>
      <trkpt lat="43.29913" lon="5.36901">
        <ele>44.36</ele>
        <time>2016-04-22T09:15:34Z</time>
      </trkpt>
      <trkpt lat="43.29903" lon="5.36894">
        <ele>45.8</ele>
        <time>2016-04-22T09:15:49Z</time>
      </trkpt>
      <trkpt lat="43.29894" lon="5.36888">
        <ele>45.8</ele>
        <time>2016-04-22T09:16:04Z</time>
      </trkpt>
      <trkpt lat="43.2989" lon="5.36884">
        <ele>44.84</ele>
        <time>2016-04-22T09:16:19Z</time>
      </trkpt>
      <trkpt lat="43.29885" lon="5.36874">
        <ele>45.32</ele>
        <time>2016-04-22T09:16:31Z</time>
      </trkpt>
      <trkpt lat="43.29878" lon="5.36869">
        <ele>45.32</ele>
        <time>2016-04-22T09:16:47Z</time>
      </trkpt>
      <trkpt lat="43.29876" lon="5.36875">
        <ele>47.72</ele>
        <time>2016-04-22T09:17:00Z</time>
      </trkpt>
      <trkpt lat="43.29876" lon="5.36877">
        <ele>47.24</ele>
        <time>2016-04-22T09:17:02Z</time>
      </trkpt>
      <trkpt lat="43.29871" lon="5.36891">
        <ele>44.36</ele>
        <time>2016-04-22T09:17:16Z</time>
      </trkpt>
      <trkpt lat="43.29868" lon="5.36902">
        <ele>41.47</ele>
        <time>2016-04-22T09:17:33Z</time>
      </trkpt>
      <trkpt lat="43.29863" lon="5.36904">
        <ele>40.99</ele>
        <time>2016-04-22T09:17:49Z</time>
      </trkpt>
      <trkpt lat="43.29852" lon="5.36911">
        <ele>43.88</ele>
        <time>2016-04-22T09:18:02Z</time>
      </trkpt>
      <trkpt lat="43.29838" lon="5.36909">
        <ele>52.53</ele>
        <time>2016-04-22T09:18:24Z</time>
      </trkpt>
      <trkpt lat="43.2983" lon="5.36909">
        <ele>53.97</ele>
        <time>2016-04-22T09:18:39Z</time>
      </trkpt>
      <trkpt lat="43.29816" lon="5.36914">
        <ele>56.37</ele>
        <time>2016-04-22T09:18:58Z</time>
      </trkpt>
      <trkpt lat="43.29818" lon="5.36929">
        <ele>52.53</ele>
        <time>2016-04-22T09:19:14Z</time>
      </trkpt>
      <trkpt lat="43.29811" lon="5.36942">
        <ele>51.57</ele>
        <time>2016-04-22T09:19:27Z</time>
      </trkpt>
      <trkpt lat="43.29807" lon="5.36953">
        <ele>50.61</ele>
        <time>2016-04-22T09:19:42Z</time>
      </trkpt>
      <trkpt lat="43.29807" lon="5.36961">
        <ele>49.16</ele>
        <time>2016-04-22T09:20:01Z</time>
      </trkpt>
      <trkpt lat="43.29803" lon="5.3696">
        <ele>36.67</ele>
        <time>2016-04-22T09:20:14Z</time>
      </trkpt>
      <trkpt lat="43.29787" lon="5.36963">
        <ele>27.05</ele>
        <time>2016-04-22T09:20:32Z</time>
      </trkpt>
      <trkpt lat="43.29779" lon="5.36972">
        <ele>30.9</ele>
        <time>2016-04-22T09:20:47Z</time>
      </trkpt>
      <trkpt lat="43.29779" lon="5.3698">
        <ele>34.26</ele>
        <time>2016-04-22T09:21:06Z</time>
      </trkpt>
      <trkpt lat="43.29775" lon="5.36994">
        <ele>24.65</ele>
        <time>2016-04-22T09:21:24Z</time>
      </trkpt>
      <trkpt lat="43.2978" lon="5.37">
        <ele>24.17</ele>
        <time>2016-04-22T09:21:37Z</time>
      </trkpt>
      <trkpt lat="43.29779" lon="5.37003">
        <ele>22.73</ele>
        <time>2016-04-22T09:21:43Z</time>
      </trkpt>
      <trkpt lat="43.29777" lon="5.37009">
        <ele>21.29</ele>
        <time>2016-04-22T09:21:49Z</time>
      </trkpt>
      <trkpt lat="43.2977" lon="5.37014">
        <ele>20.81</ele>
        <time>2016-04-22T09:21:56Z</time>
      </trkpt>
      <trkpt lat="43.29767" lon="5.37046">
        <ele>18.88</ele>
        <time>2016-04-22T09:22:18Z</time>
      </trkpt>
      <trkpt lat="43.29767" lon="5.37057">
        <ele>19.36</ele>
        <time>2016-04-22T09:22:27Z</time>
      </trkpt>
      <trkpt lat="43.29766" lon="5.37059">
        <ele>19.84</ele>
        <time>2016-04-22T09:22:29Z</time>
      </trkpt>
      <trkpt lat="43.29764" lon="5.37072">
        <ele>19.84</ele>
        <time>2016-04-22T09:22:37Z</time>
      </trkpt>
      <trkpt lat="43.2977" lon="5.3709">
        <ele>19.36</ele>
        <time>2016-04-22T09:22:51Z</time>
      </trkpt>
      <trkpt lat="43.29773" lon="5.37105">
        <ele>18.88</ele>
        <time>2016-04-22T09:23:03Z</time>
      </trkpt>
      <trkpt lat="43.29775" lon="5.3711">
        <ele>19.36</ele>
        <time>2016-04-22T09:23:19Z</time>
      </trkpt>
      <trkpt lat="43.29776" lon="5.37108">
        <ele>19.36</ele>
        <time>2016-04-22T09:23:31Z</time>
      </trkpt>
      <trkpt lat="43.29776" lon="5.37111">
        <ele>19.36</ele>
        <time>2016-04-22T09:23:34Z</time>
      </trkpt>
      <trkpt lat="43.2978" lon="5.37133">
        <ele>20.81</ele>
        <time>2016-04-22T09:23:48Z</time>
      </trkpt>
      <trkpt lat="43.29777" lon="5.37143">
        <ele>18.88</ele>
        <time>2016-04-22T09:24:00Z</time>
      </trkpt>
      <trkpt lat="43.29755" lon="5.37151">
        <ele>18.4</ele>
        <time>2016-04-22T09:24:17Z</time>
      </trkpt>
      <trkpt lat="43.29736" lon="5.3715">
        <ele>25.13</ele>
        <time>2016-04-22T09:24:36Z</time>
      </trkpt>
      <trkpt lat="43.29728" lon="5.37151">
        <ele>29.94</ele>
        <time>2016-04-22T09:24:54Z</time>
      </trkpt>
      <trkpt lat="43.29711" lon="5.37168">
        <ele>29.94</ele>
        <time>2016-04-22T09:25:10Z</time>
      </trkpt>
      <trkpt lat="43.29672" lon="5.37169">
        <ele>30.42</ele>
        <time>2016-04-22T09:25:28Z</time>
      </trkpt>
      <trkpt lat="43.29665" lon="5.3717">
        <ele>29.46</ele>
        <time>2016-04-22T09:25:43Z</time>
      </trkpt>
      <trkpt lat="43.29644" lon="5.37173">
        <ele>26.57</ele>
        <time>2016-04-22T09:26:00Z</time>
      </trkpt>
      <trkpt lat="43.2964" lon="5.37168">
        <ele>21.77</ele>
        <time>2016-04-22T09:26:15Z</time>
      </trkpt>
      <trkpt lat="43.29629" lon="5.37172">
        <ele>16</ele>
        <time>2016-04-22T09:26:37Z</time>
      </trkpt>
      <trkpt lat="43.29623" lon="5.37175">
        <ele>13.6</ele>
        <time>2016-04-22T09:26:43Z</time>
      </trkpt>
      <trkpt lat="43.29617" lon="5.37205">
        <ele>11.67</ele>
        <time>2016-04-22T09:27:05Z</time>
      </trkpt>
      <trkpt lat="43.29615" lon="5.37236">
        <ele>10.23</ele>
        <time>2016-04-22T09:27:26Z</time>
      </trkpt>
      <trkpt lat="43.29613" lon="5.37262">
        <ele>7.35</ele>
        <time>2016-04-22T09:27:45Z</time>
      </trkpt>
      <trkpt lat="43.29609" lon="5.37287">
        <ele>6.39</ele>
        <time>2016-04-22T09:28:03Z</time>
      </trkpt>
      <trkpt lat="43.29603" lon="5.37306">
        <ele>6.87</ele>
        <time>2016-04-22T09:28:20Z</time>
      </trkpt>
      <trkpt lat="43.29596" lon="5.37333">
        <ele>6.39</ele>
        <time>2016-04-22T09:28:40Z</time>
      </trkpt>
      <trkpt lat="43.29594" lon="5.37354">
        <ele>6.39</ele>
        <time>2016-04-22T09:28:54Z</time>
      </trkpt>
      <trkpt lat="43.29589" lon="5.3736">
        <ele>6.39</ele>
        <time>2016-04-22T09:29:01Z</time>
      </trkpt>
      <trkpt lat="43.29584" lon="5.37365">
        <ele>4.94</ele>
        <time>2016-04-22T09:29:16Z</time>
      </trkpt>
      <trkpt lat="43.29583" lon="5.37369">
        <ele>2.06</ele>
        <time>2016-04-22T09:29:39Z</time>
      </trkpt>
      <trkpt lat="43.29579" lon="5.37374">
        <ele>2.54</ele>
        <time>2016-04-22T09:30:03Z</time>
      </trkpt>
      <trkpt lat="43.2958" lon="5.37376">
        <ele>6.87</ele>
        <time>2016-04-22T09:30:29Z</time>
      </trkpt>
      <trkpt lat="43.29578" lon="5.3737">
        <ele>9.27</ele>
        <time>2016-04-22T09:30:47Z</time>
      </trkpt>
      <trkpt lat="43.29569" lon="5.37374">
        <ele>8.79</ele>
        <time>2016-04-22T09:31:02Z</time>
      </trkpt>
      <trkpt lat="43.29571" lon="5.37385">
        <ele>7.35</ele>
        <time>2016-04-22T09:31:17Z</time>
      </trkpt>
      <trkpt lat="43.29572" lon="5.37392">
        <ele>4.46</ele>
        <time>2016-04-22T09:31:33Z</time>
      </trkpt>
      <trkpt lat="43.29572" lon="5.37395">
        <ele>1.58</ele>
        <time>2016-04-22T09:31:48Z</time>
      </trkpt>
      <trkpt lat="43.29572" lon="5.37392">
        <ele>3.02</ele>
        <time>2016-04-22T09:32:03Z</time>
      </trkpt>
      <trkpt lat="43.29572" lon="5.37391">
        <ele>3.5</ele>
        <time>2016-04-22T09:32:22Z</time>
      </trkpt>
      <trkpt lat="43.29572" lon="5.3739">
        <ele>3.02</ele>
        <time>2016-04-22T09:32:39Z</time>
      </trkpt>
      <trkpt lat="43.29575" lon="5.37388">
        <ele>4.46</ele>
        <time>2016-04-22T09:33:02Z</time>
      </trkpt>
      <trkpt lat="43.2957" lon="5.37392">
        <ele>4.46</ele>
        <time>2016-04-22T09:33:28Z</time>
      </trkpt>
      <trkpt lat="43.29571" lon="5.37392">
        <ele>3.02</ele>
        <time>2016-04-22T09:33:57Z</time>
      </trkpt>
      <trkpt lat="43.29571" lon="5.37388">
        <ele>-0.82</ele>
        <time>2016-04-22T09:34:16Z</time>
      </trkpt>
      <trkpt lat="43.29572" lon="5.37386">
        <ele>-1.79</ele>
        <time>2016-04-22T09:34:36Z</time>
      </trkpt>
      <trkpt lat="43.29573" lon="5.37386">
        <ele>-1.79</ele>
        <time>2016-04-22T09:34:55Z</time>
      </trkpt>
      <trkpt lat="43.29575" lon="5.3739">
        <ele>-0.82</ele>
        <time>2016-04-22T09:35:11Z</time>
      </trkpt>
      <trkpt lat="43.29573" lon="5.37386">
        <ele>4.46</ele>
        <time>2016-04-22T09:35:28Z</time>
      </trkpt>
      <trkpt lat="43.29573" lon="5.37385">
        <ele>10.71</ele>
        <time>2016-04-22T09:35:53Z</time>
      </trkpt>
      <trkpt lat="43.29575" lon="5.37387">
        <ele>3.02</ele>
        <time>2016-04-22T09:36:14Z</time>
      </trkpt>
      <trkpt lat="43.29576" lon="5.37388">
        <ele>4.46</ele>
        <time>2016-04-22T09:36:34Z</time>
      </trkpt>
      <trkpt lat="43.29576" lon="5.3739">
        <ele>0.62</ele>
        <time>2016-04-22T09:37:03Z</time>
      </trkpt>
      <trkpt lat="43.29573" lon="5.3739">
        <ele>-2.27</ele>
        <time>2016-04-22T09:37:22Z</time>
      </trkpt>
      <trkpt lat="43.29571" lon="5.37389">
        <ele>-4.67</ele>
        <time>2016-04-22T09:37:53Z</time>
      </trkpt>
      <trkpt lat="43.29576" lon="5.37383">
        <ele>-5.63</ele>
        <time>2016-04-22T09:38:23Z</time>
      </trkpt>
      <trkpt lat="43.29582" lon="5.37387">
        <ele>-3.23</ele>
        <time>2016-04-22T09:38:41Z</time>
      </trkpt>
      <trkpt lat="43.29584" lon="5.37382">
        <ele>3.5</ele>
        <time>2016-04-22T09:38:54Z</time>
      </trkpt>
      <trkpt lat="43.29586" lon="5.37376">
        <ele>22.25</ele>
        <time>2016-04-22T09:39:07Z</time>
      </trkpt>
      <trkpt lat="43.29581" lon="5.3738">
        <ele>31.38</ele>
        <time>2016-04-22T09:39:18Z</time>
      </trkpt>
      <trkpt lat="43.29585" lon="5.37385">
        <ele>38.11</ele>
        <time>2016-04-22T09:39:25Z</time>
      </trkpt>
      <trkpt lat="43.2959" lon="5.37413">
        <ele>46.28</ele>
        <time>2016-04-22T09:39:43Z</time>
      </trkpt>
      <trkpt lat="43.29591" lon="5.37421">
        <ele>41.95</ele>
        <time>2016-04-22T09:39:54Z</time>
      </trkpt>
      <trkpt lat="43.29588" lon="5.37412">
        <ele>37.15</ele>
        <time>2016-04-22T09:40:01Z</time>
      </trkpt>
      <trkpt lat="43.29586" lon="5.37389">
        <ele>16.96</ele>
        <time>2016-04-22T09:40:15Z</time>
      </trkpt>
      <trkpt lat="43.29586" lon="5.37387">
        <ele>15.52</ele>
        <time>2016-04-22T09:40:16Z</time>
      </trkpt>
      <trkpt lat="43.29588" lon="5.37372">
        <ele>19.84</ele>
        <time>2016-04-22T09:40:28Z</time>
      </trkpt>
      <trkpt lat="43.29588" lon="5.37373">
        <ele>22.25</ele>
        <time>2016-04-22T09:40:31Z</time>
      </trkpt>
      <trkpt lat="43.29588" lon="5.37374">
        <ele>25.61</ele>
        <time>2016-04-22T09:40:34Z</time>
      </trkpt>
      <trkpt lat="43.29587" lon="5.37377">
        <ele>28.5</ele>
        <time>2016-04-22T09:40:37Z</time>
      </trkpt>
      <trkpt lat="43.29586" lon="5.37391">
        <ele>38.59</ele>
        <time>2016-04-22T09:40:47Z</time>
      </trkpt>
      <trkpt lat="43.29592" lon="5.37391">
        <ele>41.47</ele>
        <time>2016-04-22T09:41:09Z</time>
      </trkpt>
      <trkpt lat="43.29596" lon="5.37388">
        <ele>42.44</ele>
        <time>2016-04-22T09:41:43Z</time>
      </trkpt>
      <trkpt lat="43.29605" lon="5.374">
        <ele>29.94</ele>
        <time>2016-04-22T09:42:23Z</time>
      </trkpt>
      <trkpt lat="43.296" lon="5.37402">
        <ele>27.53</ele>
        <time>2016-04-22T09:42:46Z</time>
      </trkpt>
      <trkpt lat="43.29599" lon="5.37421">
        <ele>28.5</ele>
        <time>2016-04-22T09:43:03Z</time>
      </trkpt>
      <trkpt lat="43.29599" lon="5.37419">
        <ele>24.65</ele>
        <time>2016-04-22T09:43:14Z</time>
      </trkpt>
      <trkpt lat="43.29597" lon="5.37412">
        <ele>19.84</ele>
        <time>2016-04-22T09:43:20Z</time>
      </trkpt>
      <trkpt lat="43.29595" lon="5.37394">
        <ele>19.36</ele>
        <time>2016-04-22T09:43:30Z</time>
      </trkpt>
      <trkpt lat="43.29597" lon="5.37377">
        <ele>24.65</ele>
        <time>2016-04-22T09:43:40Z</time>
      </trkpt>
      <trkpt lat="43.29599" lon="5.37377">
        <ele>29.94</ele>
        <time>2016-04-22T09:43:52Z</time>
      </trkpt>
      <trkpt lat="43.296" lon="5.37378">
        <ele>29.94</ele>
        <time>2016-04-22T09:43:53Z</time>
      </trkpt>
      <trkpt lat="43.29605" lon="5.37408">
        <ele>37.63</ele>
        <time>2016-04-22T09:44:09Z</time>
      </trkpt>
      <trkpt lat="43.29606" lon="5.37416">
        <ele>36.67</ele>
        <time>2016-04-22T09:44:14Z</time>
      </trkpt>
      <trkpt lat="43.29603" lon="5.37422">
        <ele>27.05</ele>
        <time>2016-04-22T09:44:25Z</time>
      </trkpt>
      <trkpt lat="43.29592" lon="5.37414">
        <ele>20.81</ele>
        <time>2016-04-22T09:44:36Z</time>
      </trkpt>
      <trkpt lat="43.29587" lon="5.37409">
        <ele>22.25</ele>
        <time>2016-04-22T09:44:48Z</time>
      </trkpt>
      <trkpt lat="43.29587" lon="5.37403">
        <ele>22.73</ele>
        <time>2016-04-22T09:45:02Z</time>
      </trkpt>
      <trkpt lat="43.29587" lon="5.37398">
        <ele>27.05</ele>
        <time>2016-04-22T09:45:14Z</time>
      </trkpt>
      <trkpt lat="43.29593" lon="5.37381">
        <ele>25.61</ele>
        <time>2016-04-22T09:45:27Z</time>
      </trkpt>
      <trkpt lat="43.29593" lon="5.37374">
        <ele>24.17</ele>
        <time>2016-04-22T09:45:33Z</time>
      </trkpt>
      <trkpt lat="43.29577" lon="5.37372">
        <ele>19.84</ele>
        <time>2016-04-22T09:45:43Z</time>
      </trkpt>
      <trkpt lat="43.29574" lon="5.3737">
        <ele>17.92</ele>
        <time>2016-04-22T09:45:45Z</time>
      </trkpt>
      <trkpt lat="43.29565" lon="5.37377">
        <ele>12.15</ele>
        <time>2016-04-22T09:45:58Z</time>
      </trkpt>
      <trkpt lat="43.29564" lon="5.37376">
        <ele>11.67</ele>
        <time>2016-04-22T09:46:00Z</time>
      </trkpt>
      <trkpt lat="43.2956" lon="5.37377">
        <ele>9.27</ele>
        <time>2016-04-22T09:46:04Z</time>
      </trkpt>
      <trkpt lat="43.29544" lon="5.37384">
        <ele>9.27</ele>
        <time>2016-04-22T09:46:19Z</time>
      </trkpt>
      <trkpt lat="43.29528" lon="5.37391">
        <ele>8.79</ele>
        <time>2016-04-22T09:46:34Z</time>
      </trkpt>
      <trkpt lat="43.29524" lon="5.37394">
        <ele>7.83</ele>
        <time>2016-04-22T09:46:39Z</time>
      </trkpt>
      <trkpt lat="43.29507" lon="5.37402">
        <ele>6.39</ele>
        <time>2016-04-22T09:46:57Z</time>
      </trkpt>
      <trkpt lat="43.29489" lon="5.37407">
        <ele>7.83</ele>
        <time>2016-04-22T09:47:14Z</time>
      </trkpt>
      <trkpt lat="43.29486" lon="5.37408">
        <ele>7.83</ele>
        <time>2016-04-22T09:47:17Z</time>
      </trkpt>
      <trkpt lat="43.29484" lon="5.37419">
        <ele>3.5</ele>
        <time>2016-04-22T09:47:30Z</time>
      </trkpt>
      <trkpt lat="43.29489" lon="5.37427">
        <ele>5.42</ele>
        <time>2016-04-22T09:47:55Z</time>
      </trkpt>
      <trkpt lat="43.29488" lon="5.3743">
        <ele>4.46</ele>
        <time>2016-04-22T09:48:14Z</time>
      </trkpt>
      <trkpt lat="43.29481" lon="5.37426">
        <ele>0.62</ele>
        <time>2016-04-22T09:48:30Z</time>
      </trkpt>
      <trkpt lat="43.29476" lon="5.37428">
        <ele>-3.71</ele>
        <time>2016-04-22T09:48:48Z</time>
      </trkpt>
      <trkpt lat="43.29464" lon="5.37431">
        <ele>-7.07</ele>
        <time>2016-04-22T09:49:03Z</time>
      </trkpt>
      <trkpt lat="43.29448" lon="5.37427">
        <ele>-10.92</ele>
        <time>2016-04-22T09:49:19Z</time>
      </trkpt>
      <trkpt lat="43.29432" lon="5.37417">
        <ele>-4.19</ele>
        <time>2016-04-22T09:49:33Z</time>
      </trkpt>
      <trkpt lat="43.29418" lon="5.37401">
        <ele>-0.34</ele>
        <time>2016-04-22T09:49:50Z</time>
      </trkpt>
      <trkpt lat="43.29416" lon="5.37398">
        <ele>0.62</ele>
        <time>2016-04-22T09:49:54Z</time>
      </trkpt>
      <trkpt lat="43.29415" lon="5.37391">
        <ele>1.1</ele>
        <time>2016-04-22T09:49:59Z</time>
      </trkpt>
      <trkpt lat="43.29407" lon="5.37366">
        <ele>5.42</ele>
        <time>2016-04-22T09:50:19Z</time>
      </trkpt>
      <trkpt lat="43.29401" lon="5.37345">
        <ele>5.91</ele>
        <time>2016-04-22T09:50:35Z</time>
      </trkpt>
      <trkpt lat="43.29396" lon="5.37319">
        <ele>10.23</ele>
        <time>2016-04-22T09:50:54Z</time>
      </trkpt>
      <trkpt lat="43.29396" lon="5.37315">
        <ele>10.71</ele>
        <time>2016-04-22T09:50:57Z</time>
      </trkpt>
      <trkpt lat="43.29388" lon="5.37291">
        <ele>10.23</ele>
        <time>2016-04-22T09:51:16Z</time>
      </trkpt>
      <trkpt lat="43.29384" lon="5.3727">
        <ele>12.15</ele>
        <time>2016-04-22T09:51:33Z</time>
      </trkpt>
      <trkpt lat="43.29378" lon="5.37248">
        <ele>11.67</ele>
        <time>2016-04-22T09:51:50Z</time>
      </trkpt>
      <trkpt lat="43.29373" lon="5.37226">
        <ele>14.08</ele>
        <time>2016-04-22T09:52:09Z</time>
      </trkpt>
      <trkpt lat="43.29366" lon="5.37205">
        <ele>13.12</ele>
        <time>2016-04-22T09:52:25Z</time>
      </trkpt>
      <trkpt lat="43.29363" lon="5.37186">
        <ele>15.52</ele>
        <time>2016-04-22T09:52:40Z</time>
      </trkpt>
      <trkpt lat="43.29363" lon="5.37174">
        <ele>16.48</ele>
        <time>2016-04-22T09:52:52Z</time>
      </trkpt>
      <trkpt lat="43.29359" lon="5.37168">
        <ele>15.04</ele>
        <time>2016-04-22T09:52:57Z</time>
      </trkpt>
      <trkpt lat="43.29354" lon="5.37154">
        <ele>12.63</ele>
        <time>2016-04-22T09:53:12Z</time>
      </trkpt>
      <trkpt lat="43.29351" lon="5.3714">
        <ele>14.08</ele>
        <time>2016-04-22T09:53:26Z</time>
      </trkpt>
      <trkpt lat="43.29347" lon="5.37122">
        <ele>12.15</ele>
        <time>2016-04-22T09:53:40Z</time>
      </trkpt>
      <trkpt lat="43.29345" lon="5.37114">
        <ele>12.63</ele>
        <time>2016-04-22T09:53:47Z</time>
      </trkpt>
      <trkpt lat="43.2934" lon="5.37095">
        <ele>16</ele>
        <time>2016-04-22T09:54:03Z</time>
      </trkpt>
      <trkpt lat="43.29334" lon="5.37071">
        <ele>18.88</ele>
        <time>2016-04-22T09:54:21Z</time>
      </trkpt>
      <trkpt lat="43.29334" lon="5.37069">
        <ele>18.88</ele>
        <time>2016-04-22T09:54:23Z</time>
      </trkpt>
      <trkpt lat="43.29333" lon="5.37062">
        <ele>17.92</ele>
        <time>2016-04-22T09:54:28Z</time>
      </trkpt>
      <trkpt lat="43.29326" lon="5.37042">
        <ele>14.56</ele>
        <time>2016-04-22T09:54:44Z</time>
      </trkpt>
      <trkpt lat="43.29324" lon="5.37034">
        <ele>15.04</ele>
        <time>2016-04-22T09:54:51Z</time>
      </trkpt>
      <trkpt lat="43.29323" lon="5.37027">
        <ele>16.48</ele>
        <time>2016-04-22T09:55:06Z</time>
      </trkpt>
      <trkpt lat="43.29319" lon="5.37022">
        <ele>14.56</ele>
        <time>2016-04-22T09:55:21Z</time>
      </trkpt>
      <trkpt lat="43.29317" lon="5.3701">
        <ele>15.04</ele>
        <time>2016-04-22T09:55:34Z</time>
      </trkpt>
      <trkpt lat="43.29315" lon="5.36991">
        <ele>15.04</ele>
        <time>2016-04-22T09:55:50Z</time>
      </trkpt>
      <trkpt lat="43.29314" lon="5.36973">
        <ele>13.6</ele>
        <time>2016-04-22T09:56:05Z</time>
      </trkpt>
      <trkpt lat="43.29312" lon="5.3696">
        <ele>14.56</ele>
        <time>2016-04-22T09:56:20Z</time>
      </trkpt>
      <trkpt lat="43.29312" lon="5.36956">
        <ele>13.6</ele>
        <time>2016-04-22T09:56:40Z</time>
      </trkpt>
      <trkpt lat="43.2931" lon="5.36941">
        <ele>13.6</ele>
        <time>2016-04-22T09:56:51Z</time>
      </trkpt>
      <trkpt lat="43.29309" lon="5.36936">
        <ele>14.08</ele>
        <time>2016-04-22T09:56:55Z</time>
      </trkpt>
      <trkpt lat="43.29306" lon="5.36919">
        <ele>14.56</ele>
        <time>2016-04-22T09:57:08Z</time>
      </trkpt>
      <trkpt lat="43.29305" lon="5.36905">
        <ele>15.04</ele>
        <time>2016-04-22T09:57:19Z</time>
      </trkpt>
      <trkpt lat="43.29301" lon="5.36897">
        <ele>13.6</ele>
        <time>2016-04-22T09:57:36Z</time>
      </trkpt>
      <trkpt lat="43.29292" lon="5.36881">
        <ele>10.71</ele>
        <time>2016-04-22T09:57:50Z</time>
      </trkpt>
      <trkpt lat="43.29289" lon="5.36878">
        <ele>9.27</ele>
        <time>2016-04-22T09:57:54Z</time>
      </trkpt>
      <trkpt lat="43.29278" lon="5.36878">
        <ele>9.27</ele>
        <time>2016-04-22T09:58:04Z</time>
      </trkpt>
      <trkpt lat="43.29276" lon="5.36883">
        <ele>8.31</ele>
        <time>2016-04-22T09:58:16Z</time>
      </trkpt>
      <trkpt lat="43.29262" lon="5.36881">
        <ele>9.27</ele>
        <time>2016-04-22T09:58:30Z</time>
      </trkpt>
      <trkpt lat="43.29249" lon="5.36887">
        <ele>9.75</ele>
        <time>2016-04-22T09:58:48Z</time>
      </trkpt>
      <trkpt lat="43.29231" lon="5.36895">
        <ele>11.19</ele>
        <time>2016-04-22T09:59:03Z</time>
      </trkpt>
      <trkpt lat="43.29224" lon="5.36898">
        <ele>17.44</ele>
        <time>2016-04-22T09:59:16Z</time>
      </trkpt>
      <trkpt lat="43.29208" lon="5.36889">
        <ele>24.65</ele>
        <time>2016-04-22T09:59:31Z</time>
      </trkpt>
      <trkpt lat="43.292" lon="5.36862">
        <ele>28.98</ele>
        <time>2016-04-22T09:59:50Z</time>
      </trkpt>
      <trkpt lat="43.29193" lon="5.36836">
        <ele>29.46</ele>
        <time>2016-04-22T10:00:07Z</time>
      </trkpt>
      <trkpt lat="43.29192" lon="5.3682">
        <ele>26.57</ele>
        <time>2016-04-22T10:00:21Z</time>
      </trkpt>
      <trkpt lat="43.29187" lon="5.36804">
        <ele>20.81</ele>
        <time>2016-04-22T10:00:31Z</time>
      </trkpt>
      <trkpt lat="43.2919" lon="5.36802">
        <ele>17.44</ele>
        <time>2016-04-22T10:00:43Z</time>
      </trkpt>
      <trkpt lat="43.29187" lon="5.36801">
        <ele>17.44</ele>
        <time>2016-04-22T10:01:04Z</time>
      </trkpt>
      <trkpt lat="43.29195" lon="5.36802">
        <ele>11.67</ele>
        <time>2016-04-22T10:23:06Z</time>
      </trkpt>
      <trkpt lat="43.29191" lon="5.36823">
        <ele>16</ele>
        <time>2016-04-22T10:23:20Z</time>
      </trkpt>
      <trkpt lat="43.29193" lon="5.36834">
        <ele>16.96</ele>
        <time>2016-04-22T10:23:33Z</time>
      </trkpt>
      <trkpt lat="43.29202" lon="5.36863">
        <ele>14.08</ele>
        <time>2016-04-22T10:23:52Z</time>
      </trkpt>
      <trkpt lat="43.29212" lon="5.36882">
        <ele>11.19</ele>
        <time>2016-04-22T10:24:08Z</time>
      </trkpt>
      <trkpt lat="43.29217" lon="5.36894">
        <ele>9.27</ele>
        <time>2016-04-22T10:24:20Z</time>
      </trkpt>
      <trkpt lat="43.29222" lon="5.36909">
        <ele>11.67</ele>
        <time>2016-04-22T10:24:34Z</time>
      </trkpt>
      <trkpt lat="43.29223" lon="5.36913">
        <ele>12.63</ele>
        <time>2016-04-22T10:24:38Z</time>
      </trkpt>
      <trkpt lat="43.29227" lon="5.36935">
        <ele>11.19</ele>
        <time>2016-04-22T10:24:52Z</time>
      </trkpt>
      <trkpt lat="43.29227" lon="5.36937">
        <ele>11.19</ele>
        <time>2016-04-22T10:24:53Z</time>
      </trkpt>
      <trkpt lat="43.29222" lon="5.36955">
        <ele>10.23</ele>
        <time>2016-04-22T10:25:01Z</time>
      </trkpt>
      <trkpt lat="43.29222" lon="5.36957">
        <ele>10.23</ele>
        <time>2016-04-22T10:25:02Z</time>
      </trkpt>
      <trkpt lat="43.29222" lon="5.36959">
        <ele>10.23</ele>
        <time>2016-04-22T10:25:03Z</time>
      </trkpt>
      <trkpt lat="43.29222" lon="5.36979">
        <ele>8.31</ele>
        <time>2016-04-22T10:25:17Z</time>
      </trkpt>
      <trkpt lat="43.29226" lon="5.36979">
        <ele>7.35</ele>
        <time>2016-04-22T10:25:29Z</time>
      </trkpt>
      <trkpt lat="43.29213" lon="5.36989">
        <ele>6.87</ele>
        <time>2016-04-22T10:25:44Z</time>
      </trkpt>
      <trkpt lat="43.29204" lon="5.36991">
        <ele>9.75</ele>
        <time>2016-04-22T10:25:50Z</time>
      </trkpt>
      <trkpt lat="43.292" lon="5.36995">
        <ele>14.08</ele>
        <time>2016-04-22T10:26:01Z</time>
      </trkpt>
      <trkpt lat="43.29172" lon="5.37012">
        <ele>21.77</ele>
        <time>2016-04-22T10:26:23Z</time>
      </trkpt>
      <trkpt lat="43.29154" lon="5.37014">
        <ele>31.38</ele>
        <time>2016-04-22T10:26:42Z</time>
      </trkpt>
      <trkpt lat="43.29149" lon="5.37016">
        <ele>40.51</ele>
        <time>2016-04-22T10:27:05Z</time>
      </trkpt>
      <trkpt lat="43.29136" lon="5.37015">
        <ele>36.19</ele>
        <time>2016-04-22T10:27:20Z</time>
      </trkpt>
      <trkpt lat="43.29115" lon="5.37015">
        <ele>39.55</ele>
        <time>2016-04-22T10:27:41Z</time>
      </trkpt>
      <trkpt lat="43.29085" lon="5.37032">
        <ele>45.32</ele>
        <time>2016-04-22T10:28:04Z</time>
      </trkpt>
      <trkpt lat="43.29056" lon="5.37028">
        <ele>57.34</ele>
        <time>2016-04-22T10:28:26Z</time>
      </trkpt>
      <trkpt lat="43.29054" lon="5.37029">
        <ele>59.26</ele>
        <time>2016-04-22T10:28:40Z</time>
      </trkpt>
      <trkpt lat="43.29045" lon="5.37023">
        <ele>54.93</ele>
        <time>2016-04-22T10:28:57Z</time>
      </trkpt>
      <trkpt lat="43.2904" lon="5.37038">
        <ele>41.95</ele>
        <time>2016-04-22T10:29:11Z</time>
      </trkpt>
      <trkpt lat="43.29042" lon="5.37042">
        <ele>40.99</ele>
        <time>2016-04-22T10:29:15Z</time>
      </trkpt>
      <trkpt lat="43.29043" lon="5.37043">
        <ele>40.99</ele>
        <time>2016-04-22T10:29:16Z</time>
      </trkpt>
      <trkpt lat="43.29047" lon="5.37062">
        <ele>39.55</ele>
        <time>2016-04-22T10:29:30Z</time>
      </trkpt>
      <trkpt lat="43.29048" lon="5.37064">
        <ele>40.03</ele>
        <time>2016-04-22T10:29:31Z</time>
      </trkpt>
      <trkpt lat="43.29048" lon="5.37085">
        <ele>41.95</ele>
        <time>2016-04-22T10:29:47Z</time>
      </trkpt>
      <trkpt lat="43.29034" lon="5.37101">
        <ele>47.24</ele>
        <time>2016-04-22T10:30:06Z</time>
      </trkpt>
      <trkpt lat="43.29015" lon="5.37112">
        <ele>47.24</ele>
        <time>2016-04-22T10:30:22Z</time>
      </trkpt>
      <trkpt lat="43.29003" lon="5.37112">
        <ele>49.16</ele>
        <time>2016-04-22T10:30:40Z</time>
      </trkpt>
      <trkpt lat="43.29002" lon="5.37105">
        <ele>48.68</ele>
        <time>2016-04-22T10:30:55Z</time>
      </trkpt>
      <trkpt lat="43.29023" lon="5.37092">
        <ele>45.8</ele>
        <time>2016-04-22T10:31:15Z</time>
      </trkpt>
      <trkpt lat="43.29031" lon="5.37076">
        <ele>42.92</ele>
        <time>2016-04-22T10:31:32Z</time>
      </trkpt>
      <trkpt lat="43.29028" lon="5.37057">
        <ele>41.47</ele>
        <time>2016-04-22T10:31:50Z</time>
      </trkpt>
      <trkpt lat="43.29014" lon="5.37071">
        <ele>40.99</ele>
        <time>2016-04-22T10:32:10Z</time>
      </trkpt>
      <trkpt lat="43.29" lon="5.37083">
        <ele>42.92</ele>
        <time>2016-04-22T10:32:30Z</time>
      </trkpt>
      <trkpt lat="43.28986" lon="5.37095">
        <ele>48.2</ele>
        <time>2016-04-22T10:32:50Z</time>
      </trkpt>
      <trkpt lat="43.28973" lon="5.371">
        <ele>48.2</ele>
        <time>2016-04-22T10:33:07Z</time>
      </trkpt>
      <trkpt lat="43.28967" lon="5.371">
        <ele>51.09</ele>
        <time>2016-04-22T10:33:24Z</time>
      </trkpt>
      <trkpt lat="43.28979" lon="5.37071">
        <ele>53.49</ele>
        <time>2016-04-22T10:33:43Z</time>
      </trkpt>
      <trkpt lat="43.28986" lon="5.37051">
        <ele>55.41</ele>
        <time>2016-04-22T10:34:01Z</time>
      </trkpt>
      <trkpt lat="43.28977" lon="5.37048">
        <ele>57.82</ele>
        <time>2016-04-22T10:34:17Z</time>
      </trkpt>
      <trkpt lat="43.28965" lon="5.37053">
        <ele>57.82</ele>
        <time>2016-04-22T10:34:31Z</time>
      </trkpt>
      <trkpt lat="43.28954" lon="5.37052">
        <ele>59.26</ele>
        <time>2016-04-22T10:34:44Z</time>
      </trkpt>
      <trkpt lat="43.28945" lon="5.37053">
        <ele>59.74</ele>
        <time>2016-04-22T10:35:00Z</time>
      </trkpt>
      <trkpt lat="43.28937" lon="5.37034">
        <ele>59.26</ele>
        <time>2016-04-22T10:35:15Z</time>
      </trkpt>
      <trkpt lat="43.28929" lon="5.37012">
        <ele>61.18</ele>
        <time>2016-04-22T10:35:32Z</time>
      </trkpt>
      <trkpt lat="43.28924" lon="5.36985">
        <ele>65.99</ele>
        <time>2016-04-22T10:35:51Z</time>
      </trkpt>
      <trkpt lat="43.28916" lon="5.36978">
        <ele>65.03</ele>
        <time>2016-04-22T10:36:07Z</time>
      </trkpt>
      <trkpt lat="43.28916" lon="5.36978">
        <ele>65.03</ele>
        <time>2016-04-22T10:36:25Z</time>
      </trkpt>
      <trkpt lat="43.2891" lon="5.36971">
        <ele>68.39</ele>
        <time>2016-04-22T10:36:46Z</time>
      </trkpt>
      <trkpt lat="43.28911" lon="5.36967">
        <ele>67.91</ele>
        <time>2016-04-22T10:36:53Z</time>
      </trkpt>
      <trkpt lat="43.28912" lon="5.36958">
        <ele>67.43</ele>
        <time>2016-04-22T10:37:04Z</time>
      </trkpt>
      <trkpt lat="43.28912" lon="5.36957">
        <ele>67.43</ele>
        <time>2016-04-22T10:37:05Z</time>
      </trkpt>
      <trkpt lat="43.28913" lon="5.36952">
        <ele>66.95</ele>
        <time>2016-04-22T10:37:08Z</time>
      </trkpt>
      <trkpt lat="43.28913" lon="5.36932">
        <ele>65.99</ele>
        <time>2016-04-22T10:37:22Z</time>
      </trkpt>
      <trkpt lat="43.28914" lon="5.36928">
        <ele>65.51</ele>
        <time>2016-04-22T10:37:24Z</time>
      </trkpt>
      <trkpt lat="43.28916" lon="5.36903">
        <ele>64.07</ele>
        <time>2016-04-22T10:37:38Z</time>
      </trkpt>
      <trkpt lat="43.28916" lon="5.36886">
        <ele>64.55</ele>
        <time>2016-04-22T10:37:52Z</time>
      </trkpt>
      <trkpt lat="43.28913" lon="5.36883">
        <ele>64.55</ele>
        <time>2016-04-22T10:37:54Z</time>
      </trkpt>
      <trkpt lat="43.28907" lon="5.36873">
        <ele>63.1</ele>
        <time>2016-04-22T10:38:03Z</time>
      </trkpt>
      <trkpt lat="43.28902" lon="5.36873">
        <ele>61.18</ele>
        <time>2016-04-22T10:38:09Z</time>
      </trkpt>
      <trkpt lat="43.2889" lon="5.36874">
        <ele>60.22</ele>
        <time>2016-04-22T10:38:22Z</time>
      </trkpt>
      <trkpt lat="43.28879" lon="5.36872">
        <ele>60.22</ele>
        <time>2016-04-22T10:38:35Z</time>
      </trkpt>
      <trkpt lat="43.28867" lon="5.3687">
        <ele>59.26</ele>
        <time>2016-04-22T10:38:49Z</time>
      </trkpt>
      <trkpt lat="43.28852" lon="5.3687">
        <ele>61.18</ele>
        <time>2016-04-22T10:39:05Z</time>
      </trkpt>
      <trkpt lat="43.28842" lon="5.36874">
        <ele>62.62</ele>
        <time>2016-04-22T10:39:20Z</time>
      </trkpt>
      <trkpt lat="43.28828" lon="5.36877">
        <ele>67.91</ele>
        <time>2016-04-22T10:39:34Z</time>
      </trkpt>
      <trkpt lat="43.28819" lon="5.36882">
        <ele>73.2</ele>
        <time>2016-04-22T10:39:46Z</time>
      </trkpt>
      <trkpt lat="43.28812" lon="5.36887">
        <ele>77.52</ele>
        <time>2016-04-22T10:39:57Z</time>
      </trkpt>
      <trkpt lat="43.28809" lon="5.36892">
        <ele>78</ele>
        <time>2016-04-22T10:40:03Z</time>
      </trkpt>
      <trkpt lat="43.28804" lon="5.36898">
        <ele>78</ele>
        <time>2016-04-22T10:40:12Z</time>
      </trkpt>
      <trkpt lat="43.28794" lon="5.36907">
        <ele>78.97</ele>
        <time>2016-04-22T10:40:25Z</time>
      </trkpt>
      <trkpt lat="43.28783" lon="5.36918">
        <ele>80.41</ele>
        <time>2016-04-22T10:40:40Z</time>
      </trkpt>
      <trkpt lat="43.28774" lon="5.36923">
        <ele>81.37</ele>
        <time>2016-04-22T10:40:53Z</time>
      </trkpt>
      <trkpt lat="43.28766" lon="5.36928">
        <ele>83.77</ele>
        <time>2016-04-22T10:41:06Z</time>
      </trkpt>
      <trkpt lat="43.28756" lon="5.36931">
        <ele>86.66</ele>
        <time>2016-04-22T10:41:18Z</time>
      </trkpt>
      <trkpt lat="43.28749" lon="5.36938">
        <ele>89.06</ele>
        <time>2016-04-22T10:41:30Z</time>
      </trkpt>
      <trkpt lat="43.28739" lon="5.36943">
        <ele>93.87</ele>
        <time>2016-04-22T10:41:42Z</time>
      </trkpt>
      <trkpt lat="43.28737" lon="5.36944">
        <ele>93.87</ele>
        <time>2016-04-22T10:41:46Z</time>
      </trkpt>
      <trkpt lat="43.28726" lon="5.36948">
        <ele>94.83</ele>
        <time>2016-04-22T10:41:58Z</time>
      </trkpt>
      <trkpt lat="43.28715" lon="5.36957">
        <ele>95.79</ele>
        <time>2016-04-22T10:42:11Z</time>
      </trkpt>
      <trkpt lat="43.28703" lon="5.36964">
        <ele>97.71</ele>
        <time>2016-04-22T10:42:24Z</time>
      </trkpt>
      <trkpt lat="43.28694" lon="5.36968">
        <ele>98.19</ele>
        <time>2016-04-22T10:42:35Z</time>
      </trkpt>
      <trkpt lat="43.28692" lon="5.36969">
        <ele>98.19</ele>
        <time>2016-04-22T10:42:37Z</time>
      </trkpt>
      <trkpt lat="43.28681" lon="5.36977">
        <ele>103.96</ele>
        <time>2016-04-22T10:42:51Z</time>
      </trkpt>
      <trkpt lat="43.28667" lon="5.3698">
        <ele>103</ele>
        <time>2016-04-22T10:43:04Z</time>
      </trkpt>
      <trkpt lat="43.28663" lon="5.36983">
        <ele>103.48</ele>
        <time>2016-04-22T10:43:10Z</time>
      </trkpt>
      <trkpt lat="43.28654" lon="5.36988">
        <ele>104.44</ele>
        <time>2016-04-22T10:43:21Z</time>
      </trkpt>
      <trkpt lat="43.28645" lon="5.36992">
        <ele>105.88</ele>
        <time>2016-04-22T10:43:34Z</time>
      </trkpt>
      <trkpt lat="43.28638" lon="5.36998">
        <ele>107.32</ele>
        <time>2016-04-22T10:43:43Z</time>
      </trkpt>
      <trkpt lat="43.28632" lon="5.37002">
        <ele>108.77</ele>
        <time>2016-04-22T10:43:55Z</time>
      </trkpt>
      <trkpt lat="43.28626" lon="5.37004">
        <ele>108.29</ele>
        <time>2016-04-22T10:44:05Z</time>
      </trkpt>
      <trkpt lat="43.28617" lon="5.3701">
        <ele>106.84</ele>
        <time>2016-04-22T10:44:17Z</time>
      </trkpt>
      <trkpt lat="43.28616" lon="5.3701">
        <ele>106.84</ele>
        <time>2016-04-22T10:44:38Z</time>
      </trkpt>
      <trkpt lat="43.28616" lon="5.3701">
        <ele>105.88</ele>
        <time>2016-04-22T10:44:59Z</time>
      </trkpt>
      <trkpt lat="43.28602" lon="5.37017">
        <ele>105.88</ele>
        <time>2016-04-22T10:45:13Z</time>
      </trkpt>
      <trkpt lat="43.28599" lon="5.37019">
        <ele>106.36</ele>
        <time>2016-04-22T10:45:18Z</time>
      </trkpt>
      <trkpt lat="43.28596" lon="5.37022">
        <ele>107.81</ele>
        <time>2016-04-22T10:45:23Z</time>
      </trkpt>
      <trkpt lat="43.28592" lon="5.37026">
        <ele>108.77</ele>
        <time>2016-04-22T10:45:28Z</time>
      </trkpt>
      <trkpt lat="43.28579" lon="5.37031">
        <ele>108.77</ele>
        <time>2016-04-22T10:45:41Z</time>
      </trkpt>
      <trkpt lat="43.28573" lon="5.37035">
        <ele>110.69</ele>
        <time>2016-04-22T10:45:52Z</time>
      </trkpt>
      <trkpt lat="43.28565" lon="5.37038">
        <ele>112.61</ele>
        <time>2016-04-22T10:46:02Z</time>
      </trkpt>
      <trkpt lat="43.28558" lon="5.37042">
        <ele>113.57</ele>
        <time>2016-04-22T10:46:14Z</time>
      </trkpt>
      <trkpt lat="43.28548" lon="5.37045">
        <ele>115.01</ele>
        <time>2016-04-22T10:46:25Z</time>
      </trkpt>
      <trkpt lat="43.2854" lon="5.37048">
        <ele>115.5</ele>
        <time>2016-04-22T10:46:36Z</time>
      </trkpt>
      <trkpt lat="43.2853" lon="5.37052">
        <ele>116.46</ele>
        <time>2016-04-22T10:46:50Z</time>
      </trkpt>
      <trkpt lat="43.28526" lon="5.37053">
        <ele>116.94</ele>
        <time>2016-04-22T10:46:55Z</time>
      </trkpt>
      <trkpt lat="43.28524" lon="5.37056">
        <ele>118.38</ele>
        <time>2016-04-22T10:47:08Z</time>
      </trkpt>
      <trkpt lat="43.28524" lon="5.37056">
        <ele>117.9</ele>
        <time>2016-04-22T10:47:26Z</time>
      </trkpt>
      <trkpt lat="43.28523" lon="5.37054">
        <ele>116.94</ele>
        <time>2016-04-22T10:47:42Z</time>
      </trkpt>
      <trkpt lat="43.28522" lon="5.37056">
        <ele>116.94</ele>
        <time>2016-04-22T10:47:50Z</time>
      </trkpt>
      <trkpt lat="43.2852" lon="5.37057">
        <ele>116.94</ele>
        <time>2016-04-22T10:47:52Z</time>
      </trkpt>
      <trkpt lat="43.28509" lon="5.37058">
        <ele>118.38</ele>
        <time>2016-04-22T10:48:02Z</time>
      </trkpt>
      <trkpt lat="43.28503" lon="5.37051">
        <ele>117.9</ele>
        <time>2016-04-22T10:48:13Z</time>
      </trkpt>
      <trkpt lat="43.28503" lon="5.37055">
        <ele>118.86</ele>
        <time>2016-04-22T10:48:25Z</time>
      </trkpt>
      <trkpt lat="43.285" lon="5.37061">
        <ele>119.34</ele>
        <time>2016-04-22T10:48:37Z</time>
      </trkpt>
      <trkpt lat="43.28497" lon="5.37068">
        <ele>119.82</ele>
        <time>2016-04-22T10:48:44Z</time>
      </trkpt>
      <trkpt lat="43.28487" lon="5.37075">
        <ele>121.26</ele>
        <time>2016-04-22T10:48:54Z</time>
      </trkpt>
      <trkpt lat="43.28482" lon="5.37081">
        <ele>121.26</ele>
        <time>2016-04-22T10:49:06Z</time>
      </trkpt>
      <trkpt lat="43.28479" lon="5.37085">
        <ele>121.26</ele>
        <time>2016-04-22T10:49:12Z</time>
      </trkpt>
      <trkpt lat="43.2847" lon="5.37091">
        <ele>121.74</ele>
        <time>2016-04-22T10:49:23Z</time>
      </trkpt>
      <trkpt lat="43.28464" lon="5.37098">
        <ele>123.67</ele>
        <time>2016-04-22T10:49:35Z</time>
      </trkpt>
      <trkpt lat="43.28463" lon="5.37101">
        <ele>124.63</ele>
        <time>2016-04-22T10:49:44Z</time>
      </trkpt>
      <trkpt lat="43.28458" lon="5.37106">
        <ele>128.47</ele>
        <time>2016-04-22T10:49:57Z</time>
      </trkpt>
      <trkpt lat="43.28454" lon="5.3711">
        <ele>130.88</ele>
        <time>2016-04-22T10:50:07Z</time>
      </trkpt>
      <trkpt lat="43.28447" lon="5.37109">
        <ele>133.76</ele>
        <time>2016-04-22T10:50:19Z</time>
      </trkpt>
      <trkpt lat="43.28446" lon="5.37109">
        <ele>133.76</ele>
        <time>2016-04-22T10:50:20Z</time>
      </trkpt>
      <trkpt lat="43.2844" lon="5.37102">
        <ele>136.16</ele>
        <time>2016-04-22T10:50:32Z</time>
      </trkpt>
      <trkpt lat="43.28434" lon="5.371">
        <ele>137.61</ele>
        <time>2016-04-22T10:50:43Z</time>
      </trkpt>
      <trkpt lat="43.28429" lon="5.37096">
        <ele>140.01</ele>
        <time>2016-04-22T10:50:56Z</time>
      </trkpt>
      <trkpt lat="43.28426" lon="5.3709">
        <ele>139.53</ele>
        <time>2016-04-22T10:51:06Z</time>
      </trkpt>
      <trkpt lat="43.28426" lon="5.37089">
        <ele>141.45</ele>
        <time>2016-04-22T10:51:21Z</time>
      </trkpt>
      <trkpt lat="43.28423" lon="5.3709">
        <ele>141.93</ele>
        <time>2016-04-22T10:51:51Z</time>
      </trkpt>
      <trkpt lat="43.2842" lon="5.37087">
        <ele>143.85</ele>
        <time>2016-04-22T10:52:02Z</time>
      </trkpt>
      <trkpt lat="43.28416" lon="5.37094">
        <ele>143.85</ele>
        <time>2016-04-22T10:52:17Z</time>
      </trkpt>
      <trkpt lat="43.28408" lon="5.37099">
        <ele>167.41</ele>
        <time>2016-04-22T10:58:20Z</time>
      </trkpt>
      <trkpt lat="43.28414" lon="5.37096">
        <ele>158.75</ele>
        <time>2016-04-22T10:58:32Z</time>
      </trkpt>
      <trkpt lat="43.28415" lon="5.37096">
        <ele>161.16</ele>
        <time>2016-04-22T10:58:38Z</time>
      </trkpt>
      <trkpt lat="43.28413" lon="5.37098">
        <ele>158.75</ele>
        <time>2016-04-22T10:58:48Z</time>
      </trkpt>
      <trkpt lat="43.28411" lon="5.37093">
        <ele>159.24</ele>
        <time>2016-04-22T10:58:59Z</time>
      </trkpt>
      <trkpt lat="43.2841" lon="5.37097">
        <ele>160.68</ele>
        <time>2016-04-22T10:59:30Z</time>
      </trkpt>
      <trkpt lat="43.2841" lon="5.37096">
        <ele>160.2</ele>
        <time>2016-04-22T10:59:42Z</time>
      </trkpt>
      <trkpt lat="43.28403" lon="5.37096">
        <ele>157.79</ele>
        <time>2016-04-22T10:59:55Z</time>
      </trkpt>
      <trkpt lat="43.28401" lon="5.37097">
        <ele>156.35</ele>
        <time>2016-04-22T10:59:59Z</time>
      </trkpt>
      <trkpt lat="43.28396" lon="5.37107">
        <ele>156.35</ele>
        <time>2016-04-22T11:00:10Z</time>
      </trkpt>
      <trkpt lat="43.28394" lon="5.37108">
        <ele>157.79</ele>
        <time>2016-04-22T11:00:25Z</time>
      </trkpt>
      <trkpt lat="43.28394" lon="5.37109">
        <ele>156.35</ele>
        <time>2016-04-22T11:00:50Z</time>
      </trkpt>
      <trkpt lat="43.28395" lon="5.37108">
        <ele>155.87</ele>
        <time>2016-04-22T11:01:17Z</time>
      </trkpt>
      <trkpt lat="43.28395" lon="5.3711">
        <ele>157.31</ele>
        <time>2016-04-22T11:01:38Z</time>
      </trkpt>
      <trkpt lat="43.28394" lon="5.37108">
        <ele>159.72</ele>
        <time>2016-04-22T11:02:02Z</time>
      </trkpt>
      <trkpt lat="43.28395" lon="5.37109">
        <ele>159.72</ele>
        <time>2016-04-22T11:02:20Z</time>
      </trkpt>
      <trkpt lat="43.28395" lon="5.37108">
        <ele>159.72</ele>
        <time>2016-04-22T11:02:24Z</time>
      </trkpt>
      <trkpt lat="43.28393" lon="5.37105">
        <ele>158.75</ele>
        <time>2016-04-22T11:02:34Z</time>
      </trkpt>
      <trkpt lat="43.28394" lon="5.37106">
        <ele>159.24</ele>
        <time>2016-04-22T11:02:56Z</time>
      </trkpt>
      <trkpt lat="43.28394" lon="5.37107">
        <ele>158.75</ele>
        <time>2016-04-22T11:03:14Z</time>
      </trkpt>
      <trkpt lat="43.28394" lon="5.37107">
        <ele>158.75</ele>
        <time>2016-04-22T11:03:33Z</time>
      </trkpt>
      <trkpt lat="43.28394" lon="5.37107">
        <ele>158.27</ele>
        <time>2016-04-22T11:03:55Z</time>
      </trkpt>
      <trkpt lat="43.28394" lon="5.37106">
        <ele>158.27</ele>
        <time>2016-04-22T11:04:25Z</time>
      </trkpt>
      <trkpt lat="43.28393" lon="5.37106">
        <ele>157.79</ele>
        <time>2016-04-22T11:05:09Z</time>
      </trkpt>
      <trkpt lat="43.28394" lon="5.37107">
        <ele>157.79</ele>
        <time>2016-04-22T11:05:42Z</time>
      </trkpt>
      <trkpt lat="43.28394" lon="5.37107">
        <ele>158.75</ele>
        <time>2016-04-22T11:06:26Z</time>
      </trkpt>
      <trkpt lat="43.28394" lon="5.37106">
        <ele>158.75</ele>
        <time>2016-04-22T11:07:12Z</time>
      </trkpt>
      <trkpt lat="43.28393" lon="5.37105">
        <ele>159.72</ele>
        <time>2016-04-22T11:07:55Z</time>
      </trkpt>
      <trkpt lat="43.28393" lon="5.37105">
        <ele>159.72</ele>
        <time>2016-04-22T11:08:42Z</time>
      </trkpt>
      <trkpt lat="43.28393" lon="5.37106">
        <ele>158.75</ele>
        <time>2016-04-22T11:09:19Z</time>
      </trkpt>
      <trkpt lat="43.28394" lon="5.37106">
        <ele>159.24</ele>
        <time>2016-04-22T11:10:03Z</time>
      </trkpt>
      <trkpt lat="43.28394" lon="5.37106">
        <ele>159.24</ele>
        <time>2016-04-22T11:10:40Z</time>
      </trkpt>
      <trkpt lat="43.28393" lon="5.37105">
        <ele>160.2</ele>
        <time>2016-04-22T11:11:20Z</time>
      </trkpt>
      <trkpt lat="43.28393" lon="5.37106">
        <ele>159.72</ele>
        <time>2016-04-22T11:11:48Z</time>
      </trkpt>
      <trkpt lat="43.28393" lon="5.37107">
        <ele>159.72</ele>
        <time>2016-04-22T11:12:16Z</time>
      </trkpt>
      <trkpt lat="43.28393" lon="5.37105">
        <ele>159.24</ele>
        <time>2016-04-22T11:12:53Z</time>
      </trkpt>
      <trkpt lat="43.28393" lon="5.37106">
        <ele>159.24</ele>
        <time>2016-04-22T11:13:19Z</time>
      </trkpt>
      <trkpt lat="43.28393" lon="5.37106">
        <ele>159.72</ele>
        <time>2016-04-22T11:13:46Z</time>
      </trkpt>
      <trkpt lat="43.28393" lon="5.37107">
        <ele>159.24</ele>
        <time>2016-04-22T11:14:16Z</time>
      </trkpt>
      <trkpt lat="43.28394" lon="5.37108">
        <ele>158.27</ele>
        <time>2016-04-22T11:14:50Z</time>
      </trkpt>
      <trkpt lat="43.28394" lon="5.37107">
        <ele>158.27</ele>
        <time>2016-04-22T11:15:24Z</time>
      </trkpt>
      <trkpt lat="43.28394" lon="5.37108">
        <ele>156.83</ele>
        <time>2016-04-22T11:15:58Z</time>
      </trkpt>
      <trkpt lat="43.28394" lon="5.37107">
        <ele>156.83</ele>
        <time>2016-04-22T11:16:33Z</time>
      </trkpt>
      <trkpt lat="43.28394" lon="5.37106">
        <ele>158.75</ele>
        <time>2016-04-22T11:17:03Z</time>
      </trkpt>
      <trkpt lat="43.28393" lon="5.37105">
        <ele>159.24</ele>
        <time>2016-04-22T11:17:31Z</time>
      </trkpt>
      <trkpt lat="43.28393" lon="5.37106">
        <ele>158.75</ele>
        <time>2016-04-22T11:17:54Z</time>
      </trkpt>
      <trkpt lat="43.28393" lon="5.37105">
        <ele>158.75</ele>
        <time>2016-04-22T11:18:19Z</time>
      </trkpt>
      <trkpt lat="43.28394" lon="5.37105">
        <ele>158.75</ele>
        <time>2016-04-22T11:18:43Z</time>
      </trkpt>
      <trkpt lat="43.28395" lon="5.37104">
        <ele>160.2</ele>
        <time>2016-04-22T11:19:07Z</time>
      </trkpt>
      <trkpt lat="43.28394" lon="5.37102">
        <ele>161.16</ele>
        <time>2016-04-22T11:19:36Z</time>
      </trkpt>
      <trkpt lat="43.28394" lon="5.37103">
        <ele>159.72</ele>
        <time>2016-04-22T11:20:14Z</time>
      </trkpt>
      <trkpt lat="43.28394" lon="5.371">
        <ele>161.16</ele>
        <time>2016-04-22T11:20:52Z</time>
      </trkpt>
      <trkpt lat="43.28395" lon="5.37105">
        <ele>158.27</ele>
        <time>2016-04-22T11:21:28Z</time>
      </trkpt>
      <trkpt lat="43.28395" lon="5.37107">
        <ele>157.31</ele>
        <time>2016-04-22T11:21:59Z</time>
      </trkpt>
      <trkpt lat="43.28396" lon="5.37109">
        <ele>155.87</ele>
        <time>2016-04-22T11:22:38Z</time>
      </trkpt>
      <trkpt lat="43.28396" lon="5.37108">
        <ele>155.87</ele>
        <time>2016-04-22T11:23:12Z</time>
      </trkpt>
      <trkpt lat="43.28397" lon="5.37108">
        <ele>155.87</ele>
        <time>2016-04-22T11:23:40Z</time>
      </trkpt>
      <trkpt lat="43.28395" lon="5.37106">
        <ele>156.83</ele>
        <time>2016-04-22T11:24:18Z</time>
      </trkpt>
      <trkpt lat="43.28395" lon="5.37109">
        <ele>155.87</ele>
        <time>2016-04-22T11:24:47Z</time>
      </trkpt>
      <trkpt lat="43.28395" lon="5.37112">
        <ele>153.95</ele>
        <time>2016-04-22T11:25:22Z</time>
      </trkpt>
      <trkpt lat="43.28396" lon="5.37112">
        <ele>154.43</ele>
        <time>2016-04-22T11:25:56Z</time>
      </trkpt>
      <trkpt lat="43.28395" lon="5.37109">
        <ele>156.35</ele>
        <time>2016-04-22T11:26:31Z</time>
      </trkpt>
      <trkpt lat="43.28394" lon="5.37109">
        <ele>157.31</ele>
        <time>2016-04-22T11:26:50Z</time>
      </trkpt>
      <trkpt lat="43.28394" lon="5.37109">
        <ele>157.31</ele>
        <time>2016-04-22T11:27:15Z</time>
      </trkpt>
      <trkpt lat="43.28394" lon="5.3711">
        <ele>155.87</ele>
        <time>2016-04-22T11:27:32Z</time>
      </trkpt>
      <trkpt lat="43.28394" lon="5.3711">
        <ele>155.87</ele>
        <time>2016-04-22T11:27:51Z</time>
      </trkpt>
      <trkpt lat="43.28395" lon="5.3711">
        <ele>155.87</ele>
        <time>2016-04-22T11:28:06Z</time>
      </trkpt>
      <trkpt lat="43.28395" lon="5.37109">
        <ele>157.31</ele>
        <time>2016-04-22T11:28:30Z</time>
      </trkpt>
      <trkpt lat="43.28394" lon="5.37108">
        <ele>158.75</ele>
        <time>2016-04-22T11:28:53Z</time>
      </trkpt>
      <trkpt lat="43.28394" lon="5.37107">
        <ele>160.2</ele>
        <time>2016-04-22T11:29:14Z</time>
      </trkpt>
      <trkpt lat="43.28394" lon="5.37107">
        <ele>157.31</ele>
        <time>2016-04-22T11:29:41Z</time>
      </trkpt>
      <trkpt lat="43.28393" lon="5.37108">
        <ele>158.27</ele>
        <time>2016-04-22T11:29:45Z</time>
      </trkpt>
      <trkpt lat="43.28393" lon="5.37109">
        <ele>157.31</ele>
        <time>2016-04-22T11:29:59Z</time>
      </trkpt>
      <trkpt lat="43.28396" lon="5.37107">
        <ele>157.31</ele>
        <time>2016-04-22T11:30:15Z</time>
      </trkpt>
      <trkpt lat="43.28399" lon="5.37101">
        <ele>157.79</ele>
        <time>2016-04-22T11:30:22Z</time>
      </trkpt>
      <trkpt lat="43.28408" lon="5.37105">
        <ele>160.2</ele>
        <time>2016-04-22T11:30:37Z</time>
      </trkpt>
      <trkpt lat="43.28419" lon="5.37108">
        <ele>157.31</ele>
        <time>2016-04-22T11:30:53Z</time>
      </trkpt>
      <trkpt lat="43.28421" lon="5.37108">
        <ele>156.83</ele>
        <time>2016-04-22T11:30:56Z</time>
      </trkpt>
      <trkpt lat="43.28416" lon="5.37099">
        <ele>154.91</ele>
        <time>2016-04-22T11:31:10Z</time>
      </trkpt>
      <trkpt lat="43.28421" lon="5.37089">
        <ele>152.99</ele>
        <time>2016-04-22T11:31:25Z</time>
      </trkpt>
      <trkpt lat="43.28424" lon="5.37088">
        <ele>150.58</ele>
        <time>2016-04-22T11:31:36Z</time>
      </trkpt>
      <trkpt lat="43.28428" lon="5.37094">
        <ele>148.66</ele>
        <time>2016-04-22T11:31:49Z</time>
      </trkpt>
      <trkpt lat="43.28433" lon="5.37099">
        <ele>147.7</ele>
        <time>2016-04-22T11:32:01Z</time>
      </trkpt>
      <trkpt lat="43.2844" lon="5.37093">
        <ele>147.22</ele>
        <time>2016-04-22T11:32:12Z</time>
      </trkpt>
      <trkpt lat="43.2844" lon="5.37093">
        <ele>146.74</ele>
        <time>2016-04-22T11:32:15Z</time>
      </trkpt>
      <trkpt lat="43.28444" lon="5.37101">
        <ele>145.3</ele>
        <time>2016-04-22T11:32:28Z</time>
      </trkpt>
      <trkpt lat="43.28445" lon="5.371">
        <ele>145.78</ele>
        <time>2016-04-22T11:32:52Z</time>
      </trkpt>
      <trkpt lat="43.28441" lon="5.37099">
        <ele>144.82</ele>
        <time>2016-04-22T11:33:10Z</time>
      </trkpt>
      <trkpt lat="43.28442" lon="5.37101">
        <ele>143.85</ele>
        <time>2016-04-22T11:33:34Z</time>
      </trkpt>
      <trkpt lat="43.28447" lon="5.37108">
        <ele>142.41</ele>
        <time>2016-04-22T11:33:47Z</time>
      </trkpt>
      <trkpt lat="43.28449" lon="5.37111">
        <ele>141.45</ele>
        <time>2016-04-22T11:33:52Z</time>
      </trkpt>
      <trkpt lat="43.28454" lon="5.37118">
        <ele>140.49</ele>
        <time>2016-04-22T11:34:03Z</time>
      </trkpt>
      <trkpt lat="43.28462" lon="5.37132">
        <ele>137.13</ele>
        <time>2016-04-22T11:34:17Z</time>
      </trkpt>
      <trkpt lat="43.28465" lon="5.37137">
        <ele>135.68</ele>
        <time>2016-04-22T11:34:20Z</time>
      </trkpt>
      <trkpt lat="43.28467" lon="5.37143">
        <ele>135.68</ele>
        <time>2016-04-22T11:34:27Z</time>
      </trkpt>
      <trkpt lat="43.28467" lon="5.37148">
        <ele>135.2</ele>
        <time>2016-04-22T11:34:32Z</time>
      </trkpt>
      <trkpt lat="43.28467" lon="5.37149">
        <ele>134.72</ele>
        <time>2016-04-22T11:34:33Z</time>
      </trkpt>
      <trkpt lat="43.28464" lon="5.37161">
        <ele>135.2</ele>
        <time>2016-04-22T11:34:47Z</time>
      </trkpt>
      <trkpt lat="43.28461" lon="5.37165">
        <ele>135.68</ele>
        <time>2016-04-22T11:34:51Z</time>
      </trkpt>
      <trkpt lat="43.28458" lon="5.3717">
        <ele>135.2</ele>
        <time>2016-04-22T11:34:56Z</time>
      </trkpt>
      <trkpt lat="43.28457" lon="5.37171">
        <ele>135.2</ele>
        <time>2016-04-22T11:34:57Z</time>
      </trkpt>
      <trkpt lat="43.28456" lon="5.37172">
        <ele>135.2</ele>
        <time>2016-04-22T11:34:58Z</time>
      </trkpt>
      <trkpt lat="43.28455" lon="5.37173">
        <ele>135.2</ele>
        <time>2016-04-22T11:34:59Z</time>
      </trkpt>
      <trkpt lat="43.28444" lon="5.37187">
        <ele>135.2</ele>
        <time>2016-04-22T11:35:15Z</time>
      </trkpt>
      <trkpt lat="43.28441" lon="5.37188">
        <ele>135.2</ele>
        <time>2016-04-22T11:35:22Z</time>
      </trkpt>
      <trkpt lat="43.28439" lon="5.37187">
        <ele>135.2</ele>
        <time>2016-04-22T11:35:23Z</time>
      </trkpt>
      <trkpt lat="43.28429" lon="5.37181">
        <ele>137.13</ele>
        <time>2016-04-22T11:35:36Z</time>
      </trkpt>
      <trkpt lat="43.28419" lon="5.3718">
        <ele>139.53</ele>
        <time>2016-04-22T11:35:50Z</time>
      </trkpt>
      <trkpt lat="43.28426" lon="5.37191">
        <ele>140.97</ele>
        <time>2016-04-22T11:36:04Z</time>
      </trkpt>
      <trkpt lat="43.28428" lon="5.37193">
        <ele>140.49</ele>
        <time>2016-04-22T11:36:08Z</time>
      </trkpt>
      <trkpt lat="43.28437" lon="5.37199">
        <ele>137.61</ele>
        <time>2016-04-22T11:36:22Z</time>
      </trkpt>
      <trkpt lat="43.28446" lon="5.37206">
        <ele>135.68</ele>
        <time>2016-04-22T11:36:36Z</time>
      </trkpt>
      <trkpt lat="43.2845" lon="5.3721">
        <ele>135.68</ele>
        <time>2016-04-22T11:36:40Z</time>
      </trkpt>
      <trkpt lat="43.28461" lon="5.37215">
        <ele>134.24</ele>
        <time>2016-04-22T11:36:46Z</time>
      </trkpt>
      <trkpt lat="43.28466" lon="5.37217">
        <ele>132.32</ele>
        <time>2016-04-22T11:37:01Z</time>
      </trkpt>
      <trkpt lat="43.28464" lon="5.37215">
        <ele>132.32</ele>
        <time>2016-04-22T11:37:18Z</time>
      </trkpt>
      <trkpt lat="43.28472" lon="5.37221">
        <ele>129.43</ele>
        <time>2016-04-22T11:37:29Z</time>
      </trkpt>
      <trkpt lat="43.2848" lon="5.37226">
        <ele>126.55</ele>
        <time>2016-04-22T11:37:42Z</time>
      </trkpt>
      <trkpt lat="43.28478" lon="5.37231">
        <ele>123.19</ele>
        <time>2016-04-22T11:38:04Z</time>
      </trkpt>
      <trkpt lat="43.28471" lon="5.3724">
        <ele>120.78</ele>
        <time>2016-04-22T11:38:19Z</time>
      </trkpt>
      <trkpt lat="43.28469" lon="5.37243">
        <ele>119.82</ele>
        <time>2016-04-22T11:38:24Z</time>
      </trkpt>
      <trkpt lat="43.28462" lon="5.37251">
        <ele>115.98</ele>
        <time>2016-04-22T11:38:38Z</time>
      </trkpt>
      <trkpt lat="43.28459" lon="5.37252">
        <ele>114.53</ele>
        <time>2016-04-22T11:39:05Z</time>
      </trkpt>
      <trkpt lat="43.28454" lon="5.37254">
        <ele>114.53</ele>
        <time>2016-04-22T11:39:10Z</time>
      </trkpt>
      <trkpt lat="43.28447" lon="5.37257">
        <ele>112.61</ele>
        <time>2016-04-22T11:39:21Z</time>
      </trkpt>
      <trkpt lat="43.28439" lon="5.37258">
        <ele>112.13</ele>
        <time>2016-04-22T11:39:30Z</time>
      </trkpt>
      <trkpt lat="43.28429" lon="5.37257">
        <ele>110.69</ele>
        <time>2016-04-22T11:39:41Z</time>
      </trkpt>
      <trkpt lat="43.28429" lon="5.37258">
        <ele>109.25</ele>
        <time>2016-04-22T11:39:54Z</time>
      </trkpt>
      <trkpt lat="43.28421" lon="5.37261">
        <ele>107.81</ele>
        <time>2016-04-22T11:40:04Z</time>
      </trkpt>
      <trkpt lat="43.28416" lon="5.37264">
        <ele>106.84</ele>
        <time>2016-04-22T11:40:21Z</time>
      </trkpt>
      <trkpt lat="43.28405" lon="5.37268">
        <ele>106.36</ele>
        <time>2016-04-22T11:40:33Z</time>
      </trkpt>
      <trkpt lat="43.28394" lon="5.37276">
        <ele>103.48</ele>
        <time>2016-04-22T11:40:48Z</time>
      </trkpt>
      <trkpt lat="43.2839" lon="5.37279">
        <ele>100.11</ele>
        <time>2016-04-22T11:41:02Z</time>
      </trkpt>
      <trkpt lat="43.28391" lon="5.37279">
        <ele>100.11</ele>
        <time>2016-04-22T11:41:03Z</time>
      </trkpt>
      <trkpt lat="43.28392" lon="5.37281">
        <ele>100.11</ele>
        <time>2016-04-22T11:41:04Z</time>
      </trkpt>
      <trkpt lat="43.28393" lon="5.37282">
        <ele>100.11</ele>
        <time>2016-04-22T11:41:05Z</time>
      </trkpt>
      <trkpt lat="43.28395" lon="5.37286">
        <ele>97.71</ele>
        <time>2016-04-22T11:41:18Z</time>
      </trkpt>
      <trkpt lat="43.28394" lon="5.37287">
        <ele>96.27</ele>
        <time>2016-04-22T11:41:26Z</time>
      </trkpt>
      <trkpt lat="43.28394" lon="5.37289">
        <ele>95.79</ele>
        <time>2016-04-22T11:41:27Z</time>
      </trkpt>
      <trkpt lat="43.28394" lon="5.37305">
        <ele>93.39</ele>
        <time>2016-04-22T11:41:39Z</time>
      </trkpt>
      <trkpt lat="43.28393" lon="5.37321">
        <ele>93.87</ele>
        <time>2016-04-22T11:41:48Z</time>
      </trkpt>
      <trkpt lat="43.28393" lon="5.3734">
        <ele>94.83</ele>
        <time>2016-04-22T11:42:00Z</time>
      </trkpt>
      <trkpt lat="43.28393" lon="5.37342">
        <ele>95.79</ele>
        <time>2016-04-22T11:42:06Z</time>
      </trkpt>
      <trkpt lat="43.28394" lon="5.37344">
        <ele>95.79</ele>
        <time>2016-04-22T11:42:07Z</time>
      </trkpt>
      <trkpt lat="43.28394" lon="5.37346">
        <ele>95.79</ele>
        <time>2016-04-22T11:42:08Z</time>
      </trkpt>
      <trkpt lat="43.28395" lon="5.37357">
        <ele>95.31</ele>
        <time>2016-04-22T11:42:19Z</time>
      </trkpt>
      <trkpt lat="43.28398" lon="5.37372">
        <ele>94.83</ele>
        <time>2016-04-22T11:42:32Z</time>
      </trkpt>
      <trkpt lat="43.284" lon="5.37385">
        <ele>94.35</ele>
        <time>2016-04-22T11:42:41Z</time>
      </trkpt>
      <trkpt lat="43.28401" lon="5.37407">
        <ele>87.14</ele>
        <time>2016-04-22T11:42:51Z</time>
      </trkpt>
      <trkpt lat="43.28404" lon="5.3742">
        <ele>82.81</ele>
        <time>2016-04-22T11:43:02Z</time>
      </trkpt>
      <trkpt lat="43.28405" lon="5.37436">
        <ele>80.89</ele>
        <time>2016-04-22T11:43:13Z</time>
      </trkpt>
      <trkpt lat="43.28406" lon="5.37441">
        <ele>76.56</ele>
        <time>2016-04-22T11:43:25Z</time>
      </trkpt>
      <trkpt lat="43.2841" lon="5.37456">
        <ele>79.93</ele>
        <time>2016-04-22T11:43:36Z</time>
      </trkpt>
      <trkpt lat="43.2841" lon="5.37458">
        <ele>79.93</ele>
        <time>2016-04-22T11:43:37Z</time>
      </trkpt>
      <trkpt lat="43.2841" lon="5.3746">
        <ele>80.41</ele>
        <time>2016-04-22T11:43:38Z</time>
      </trkpt>
      <trkpt lat="43.28413" lon="5.37467">
        <ele>80.41</ele>
        <time>2016-04-22T11:43:48Z</time>
      </trkpt>
      <trkpt lat="43.28414" lon="5.37469">
        <ele>80.41</ele>
        <time>2016-04-22T11:43:49Z</time>
      </trkpt>
      <trkpt lat="43.28414" lon="5.37471">
        <ele>80.41</ele>
        <time>2016-04-22T11:43:50Z</time>
      </trkpt>
      <trkpt lat="43.28415" lon="5.37474">
        <ele>80.41</ele>
        <time>2016-04-22T11:43:51Z</time>
      </trkpt>
      <trkpt lat="43.28416" lon="5.37477">
        <ele>80.41</ele>
        <time>2016-04-22T11:43:52Z</time>
      </trkpt>
      <trkpt lat="43.28418" lon="5.37484">
        <ele>80.89</ele>
        <time>2016-04-22T11:44:02Z</time>
      </trkpt>
      <trkpt lat="43.28417" lon="5.37487">
        <ele>80.89</ele>
        <time>2016-04-22T11:44:16Z</time>
      </trkpt>
      <trkpt lat="43.28418" lon="5.37489">
        <ele>79.93</ele>
        <time>2016-04-22T11:44:30Z</time>
      </trkpt>
      <trkpt lat="43.28415" lon="5.37497">
        <ele>82.33</ele>
        <time>2016-04-22T11:44:53Z</time>
      </trkpt>
      <trkpt lat="43.28416" lon="5.37504">
        <ele>81.37</ele>
        <time>2016-04-22T11:45:08Z</time>
      </trkpt>
      <trkpt lat="43.28418" lon="5.37503">
        <ele>82.81</ele>
        <time>2016-04-22T11:45:26Z</time>
      </trkpt>
      <trkpt lat="43.28416" lon="5.37502">
        <ele>83.77</ele>
        <time>2016-04-22T11:45:28Z</time>
      </trkpt>
      <trkpt lat="43.28413" lon="5.37501">
        <ele>83.77</ele>
        <time>2016-04-22T11:45:30Z</time>
      </trkpt>
      <trkpt lat="43.28412" lon="5.37503">
        <ele>84.25</ele>
        <time>2016-04-22T11:45:31Z</time>
      </trkpt>
      <trkpt lat="43.28411" lon="5.37504">
        <ele>84.25</ele>
        <time>2016-04-22T11:45:32Z</time>
      </trkpt>
      <trkpt lat="43.28409" lon="5.37505">
        <ele>84.73</ele>
        <time>2016-04-22T11:45:33Z</time>
      </trkpt>
      <trkpt lat="43.28407" lon="5.37506">
        <ele>84.73</ele>
        <time>2016-04-22T11:45:34Z</time>
      </trkpt>
      <trkpt lat="43.28404" lon="5.37512">
        <ele>87.62</ele>
        <time>2016-04-22T11:45:42Z</time>
      </trkpt>
      <trkpt lat="43.28395" lon="5.37516">
        <ele>89.06</ele>
        <time>2016-04-22T11:45:55Z</time>
      </trkpt>
      <trkpt lat="43.28388" lon="5.37523">
        <ele>89.54</ele>
        <time>2016-04-22T11:46:00Z</time>
      </trkpt>
      <trkpt lat="43.28383" lon="5.37527">
        <ele>91.46</ele>
        <time>2016-04-22T11:46:10Z</time>
      </trkpt>
      <trkpt lat="43.28383" lon="5.3753">
        <ele>90.5</ele>
        <time>2016-04-22T11:46:13Z</time>
      </trkpt>
      <trkpt lat="43.28383" lon="5.37532">
        <ele>90.02</ele>
        <time>2016-04-22T11:46:14Z</time>
      </trkpt>
      <trkpt lat="43.28381" lon="5.37534">
        <ele>89.06</ele>
        <time>2016-04-22T11:46:15Z</time>
      </trkpt>
      <trkpt lat="43.2838" lon="5.37539">
        <ele>82.81</ele>
        <time>2016-04-22T11:46:25Z</time>
      </trkpt>
      <trkpt lat="43.28389" lon="5.37545">
        <ele>77.52</ele>
        <time>2016-04-22T11:46:36Z</time>
      </trkpt>
      <trkpt lat="43.28392" lon="5.37549">
        <ele>74.16</ele>
        <time>2016-04-22T11:46:43Z</time>
      </trkpt>
      <trkpt lat="43.28398" lon="5.37554">
        <ele>71.76</ele>
        <time>2016-04-22T11:46:48Z</time>
      </trkpt>
      <trkpt lat="43.28403" lon="5.37559">
        <ele>69.35</ele>
        <time>2016-04-22T11:47:00Z</time>
      </trkpt>
      <trkpt lat="43.28411" lon="5.37567">
        <ele>71.76</ele>
        <time>2016-04-22T11:47:22Z</time>
      </trkpt>
      <trkpt lat="43.28412" lon="5.37569">
        <ele>72.24</ele>
        <time>2016-04-22T11:47:23Z</time>
      </trkpt>
      <trkpt lat="43.28428" lon="5.37578">
        <ele>70.79</ele>
        <time>2016-04-22T11:47:32Z</time>
      </trkpt>
      <trkpt lat="43.28431" lon="5.37581">
        <ele>69.35</ele>
        <time>2016-04-22T11:47:34Z</time>
      </trkpt>
      <trkpt lat="43.28438" lon="5.37592">
        <ele>65.03</ele>
        <time>2016-04-22T11:47:47Z</time>
      </trkpt>
      <trkpt lat="43.28439" lon="5.37593">
        <ele>64.55</ele>
        <time>2016-04-22T11:47:51Z</time>
      </trkpt>
      <trkpt lat="43.28444" lon="5.37601">
        <ele>61.66</ele>
        <time>2016-04-22T11:47:56Z</time>
      </trkpt>
      <trkpt lat="43.2845" lon="5.37611">
        <ele>59.74</ele>
        <time>2016-04-22T11:48:07Z</time>
      </trkpt>
      <trkpt lat="43.28453" lon="5.37624">
        <ele>57.82</ele>
        <time>2016-04-22T11:48:17Z</time>
      </trkpt>
      <trkpt lat="43.28456" lon="5.37628">
        <ele>56.37</ele>
        <time>2016-04-22T11:48:23Z</time>
      </trkpt>
      <trkpt lat="43.28469" lon="5.37643">
        <ele>57.82</ele>
        <time>2016-04-22T11:48:35Z</time>
      </trkpt>
      <trkpt lat="43.28478" lon="5.37653">
        <ele>57.82</ele>
        <time>2016-04-22T11:48:50Z</time>
      </trkpt>
      <trkpt lat="43.28482" lon="5.37655">
        <ele>56.86</ele>
        <time>2016-04-22T11:48:58Z</time>
      </trkpt>
      <trkpt lat="43.28495" lon="5.37671">
        <ele>58.3</ele>
        <time>2016-04-22T11:49:12Z</time>
      </trkpt>
      <trkpt lat="43.28501" lon="5.37677">
        <ele>56.86</ele>
        <time>2016-04-22T11:49:20Z</time>
      </trkpt>
      <trkpt lat="43.28506" lon="5.37678">
        <ele>55.89</ele>
        <time>2016-04-22T11:49:22Z</time>
      </trkpt>
      <trkpt lat="43.28509" lon="5.37678">
        <ele>55.41</ele>
        <time>2016-04-22T11:49:23Z</time>
      </trkpt>
      <trkpt lat="43.28514" lon="5.3768">
        <ele>53.49</ele>
        <time>2016-04-22T11:49:28Z</time>
      </trkpt>
      <trkpt lat="43.28523" lon="5.37693">
        <ele>52.53</ele>
        <time>2016-04-22T11:49:40Z</time>
      </trkpt>
      <trkpt lat="43.2853" lon="5.37709">
        <ele>49.65</ele>
        <time>2016-04-22T11:49:51Z</time>
      </trkpt>
      <trkpt lat="43.28542" lon="5.37716">
        <ele>46.28</ele>
        <time>2016-04-22T11:50:03Z</time>
      </trkpt>
      <trkpt lat="43.28551" lon="5.37735">
        <ele>43.88</ele>
        <time>2016-04-22T11:50:15Z</time>
      </trkpt>
      <trkpt lat="43.28553" lon="5.3774">
        <ele>43.4</ele>
        <time>2016-04-22T11:50:19Z</time>
      </trkpt>
      <trkpt lat="43.28555" lon="5.37745">
        <ele>43.4</ele>
        <time>2016-04-22T11:50:22Z</time>
      </trkpt>
      <trkpt lat="43.28568" lon="5.3775">
        <ele>42.44</ele>
        <time>2016-04-22T11:50:33Z</time>
      </trkpt>
      <trkpt lat="43.28576" lon="5.37763">
        <ele>40.51</ele>
        <time>2016-04-22T11:50:52Z</time>
      </trkpt>
      <trkpt lat="43.28578" lon="5.37766">
        <ele>38.59</ele>
        <time>2016-04-22T11:51:06Z</time>
      </trkpt>
      <trkpt lat="43.28578" lon="5.37773">
        <ele>38.11</ele>
        <time>2016-04-22T11:51:28Z</time>
      </trkpt>
      <trkpt lat="43.28583" lon="5.37774">
        <ele>38.59</ele>
        <time>2016-04-22T11:51:44Z</time>
      </trkpt>
      <trkpt lat="43.28589" lon="5.37766">
        <ele>39.07</ele>
        <time>2016-04-22T11:51:55Z</time>
      </trkpt>
      <trkpt lat="43.28609" lon="5.3776">
        <ele>39.55</ele>
        <time>2016-04-22T11:52:10Z</time>
      </trkpt>
      <trkpt lat="43.28621" lon="5.37751">
        <ele>40.99</ele>
        <time>2016-04-22T11:52:24Z</time>
      </trkpt>
      <trkpt lat="43.28636" lon="5.37749">
        <ele>41.95</ele>
        <time>2016-04-22T11:52:38Z</time>
      </trkpt>
      <trkpt lat="43.28646" lon="5.37739">
        <ele>42.44</ele>
        <time>2016-04-22T11:52:55Z</time>
      </trkpt>
      <trkpt lat="43.28646" lon="5.3774">
        <ele>36.67</ele>
        <time>2016-04-22T11:53:12Z</time>
      </trkpt>
      <trkpt lat="43.28648" lon="5.37738">
        <ele>33.78</ele>
        <time>2016-04-22T11:53:28Z</time>
      </trkpt>
      <trkpt lat="43.28651" lon="5.37738">
        <ele>33.3</ele>
        <time>2016-04-22T11:53:39Z</time>
      </trkpt>
      <trkpt lat="43.28652" lon="5.37737">
        <ele>32.82</ele>
        <time>2016-04-22T11:53:40Z</time>
      </trkpt>
      <trkpt lat="43.28655" lon="5.37736">
        <ele>32.34</ele>
        <time>2016-04-22T11:53:43Z</time>
      </trkpt>
      <trkpt lat="43.28661" lon="5.37732">
        <ele>29.46</ele>
        <time>2016-04-22T11:53:59Z</time>
      </trkpt>
      <trkpt lat="43.2868" lon="5.37733">
        <ele>26.57</ele>
        <time>2016-04-22T11:54:17Z</time>
      </trkpt>
      <trkpt lat="43.28685" lon="5.37733">
        <ele>24.17</ele>
        <time>2016-04-22T11:54:36Z</time>
      </trkpt>
      <trkpt lat="43.28695" lon="5.37733">
        <ele>27.53</ele>
        <time>2016-04-22T11:54:51Z</time>
      </trkpt>
      <trkpt lat="43.28702" lon="5.37722">
        <ele>38.11</ele>
        <time>2016-04-22T11:55:08Z</time>
      </trkpt>
      <trkpt lat="43.28713" lon="5.3771">
        <ele>43.88</ele>
        <time>2016-04-22T11:55:22Z</time>
      </trkpt>
      <trkpt lat="43.28738" lon="5.37706">
        <ele>46.28</ele>
        <time>2016-04-22T11:55:42Z</time>
      </trkpt>
      <trkpt lat="43.28742" lon="5.37708">
        <ele>49.16</ele>
        <time>2016-04-22T11:56:03Z</time>
      </trkpt>
      <trkpt lat="43.28755" lon="5.37705">
        <ele>49.16</ele>
        <time>2016-04-22T11:56:18Z</time>
      </trkpt>
      <trkpt lat="43.28773" lon="5.37699">
        <ele>49.65</ele>
        <time>2016-04-22T11:56:33Z</time>
      </trkpt>
      <trkpt lat="43.28784" lon="5.37698">
        <ele>51.09</ele>
        <time>2016-04-22T11:56:45Z</time>
      </trkpt>
      <trkpt lat="43.28794" lon="5.37682">
        <ele>53.01</ele>
        <time>2016-04-22T11:56:59Z</time>
      </trkpt>
      <trkpt lat="43.28793" lon="5.37683">
        <ele>55.89</ele>
        <time>2016-04-22T11:57:18Z</time>
      </trkpt>
      <trkpt lat="43.28787" lon="5.37682">
        <ele>55.41</ele>
        <time>2016-04-22T11:57:28Z</time>
      </trkpt>
      <trkpt lat="43.28775" lon="5.37693">
        <ele>54.93</ele>
        <time>2016-04-22T11:57:41Z</time>
      </trkpt>
      <trkpt lat="43.28763" lon="5.37699">
        <ele>52.53</ele>
        <time>2016-04-22T11:57:55Z</time>
      </trkpt>
      <trkpt lat="43.28751" lon="5.37705">
        <ele>50.61</ele>
        <time>2016-04-22T11:58:09Z</time>
      </trkpt>
      <trkpt lat="43.28742" lon="5.37709">
        <ele>51.09</ele>
        <time>2016-04-22T11:58:20Z</time>
      </trkpt>
      <trkpt lat="43.2873" lon="5.37715">
        <ele>50.61</ele>
        <time>2016-04-22T11:58:33Z</time>
      </trkpt>
      <trkpt lat="43.28713" lon="5.37721">
        <ele>49.65</ele>
        <time>2016-04-22T11:58:49Z</time>
      </trkpt>
      <trkpt lat="43.28704" lon="5.37721">
        <ele>48.68</ele>
        <time>2016-04-22T11:59:01Z</time>
      </trkpt>
      <trkpt lat="43.28696" lon="5.37727">
        <ele>48.68</ele>
        <time>2016-04-22T11:59:14Z</time>
      </trkpt>
      <trkpt lat="43.28684" lon="5.37732">
        <ele>47.72</ele>
        <time>2016-04-22T11:59:27Z</time>
      </trkpt>
      <trkpt lat="43.28668" lon="5.37736">
        <ele>45.8</ele>
        <time>2016-04-22T11:59:41Z</time>
      </trkpt>
      <trkpt lat="43.28659" lon="5.3774">
        <ele>48.2</ele>
        <time>2016-04-22T11:59:54Z</time>
      </trkpt>
      <trkpt lat="43.28648" lon="5.37744">
        <ele>47.72</ele>
        <time>2016-04-22T12:00:10Z</time>
      </trkpt>
      <trkpt lat="43.28643" lon="5.37746">
        <ele>50.13</ele>
        <time>2016-04-22T12:00:20Z</time>
      </trkpt>
      <trkpt lat="43.28645" lon="5.37759">
        <ele>48.68</ele>
        <time>2016-04-22T12:00:29Z</time>
      </trkpt>
      <trkpt lat="43.28644" lon="5.37775">
        <ele>44.36</ele>
        <time>2016-04-22T12:00:42Z</time>
      </trkpt>
      <trkpt lat="43.28643" lon="5.37789">
        <ele>42.44</ele>
        <time>2016-04-22T12:00:54Z</time>
      </trkpt>
      <trkpt lat="43.28645" lon="5.37792">
        <ele>40.99</ele>
        <time>2016-04-22T12:01:11Z</time>
      </trkpt>
      <trkpt lat="43.28644" lon="5.37802">
        <ele>40.51</ele>
        <time>2016-04-22T12:01:23Z</time>
      </trkpt>
      <trkpt lat="43.28639" lon="5.37804">
        <ele>40.03</ele>
        <time>2016-04-22T12:01:38Z</time>
      </trkpt>
      <trkpt lat="43.28638" lon="5.37804">
        <ele>39.55</ele>
        <time>2016-04-22T12:01:44Z</time>
      </trkpt>
      <trkpt lat="43.28646" lon="5.37804">
        <ele>41.47</ele>
        <time>2016-04-22T12:01:58Z</time>
      </trkpt>
      <trkpt lat="43.28648" lon="5.37802">
        <ele>44.36</ele>
        <time>2016-04-22T12:02:15Z</time>
      </trkpt>
      <trkpt lat="43.28651" lon="5.37807">
        <ele>43.88</ele>
        <time>2016-04-22T12:02:31Z</time>
      </trkpt>
      <trkpt lat="43.28648" lon="5.37815">
        <ele>52.53</ele>
        <time>2016-04-22T12:02:56Z</time>
      </trkpt>
      <trkpt lat="43.28647" lon="5.37812">
        <ele>52.53</ele>
        <time>2016-04-22T12:03:30Z</time>
      </trkpt>
      <trkpt lat="43.28642" lon="5.37805">
        <ele>52.05</ele>
        <time>2016-04-22T12:03:54Z</time>
      </trkpt>
      <trkpt lat="43.28641" lon="5.37805">
        <ele>52.05</ele>
        <time>2016-04-22T12:04:29Z</time>
      </trkpt>
      <trkpt lat="43.28648" lon="5.37808">
        <ele>54.93</ele>
        <time>2016-04-22T12:04:51Z</time>
      </trkpt>
      <trkpt lat="43.2865" lon="5.37809">
        <ele>57.82</ele>
        <time>2016-04-22T12:05:20Z</time>
      </trkpt>
      <trkpt lat="43.28645" lon="5.37805">
        <ele>59.74</ele>
        <time>2016-04-22T12:05:52Z</time>
      </trkpt>
      <trkpt lat="43.28638" lon="5.37805">
        <ele>57.34</ele>
        <time>2016-04-22T12:06:25Z</time>
      </trkpt>
      <trkpt lat="43.28631" lon="5.37797">
        <ele>57.34</ele>
        <time>2016-04-22T12:07:05Z</time>
      </trkpt>
      <trkpt lat="43.28646" lon="5.37804">
        <ele>54.93</ele>
        <time>2016-04-22T12:07:37Z</time>
      </trkpt>
      <trkpt lat="43.28653" lon="5.37803">
        <ele>59.74</ele>
        <time>2016-04-22T12:08:12Z</time>
      </trkpt>
      <trkpt lat="43.28651" lon="5.37804">
        <ele>58.78</ele>
        <time>2016-04-22T12:08:43Z</time>
      </trkpt>
      <trkpt lat="43.28651" lon="5.37803">
        <ele>58.78</ele>
        <time>2016-04-22T12:09:13Z</time>
      </trkpt>
      <trkpt lat="43.28651" lon="5.37802">
        <ele>61.18</ele>
        <time>2016-04-22T12:09:43Z</time>
      </trkpt>
      <trkpt lat="43.28646" lon="5.3781">
        <ele>58.3</ele>
        <time>2016-04-22T12:10:17Z</time>
      </trkpt>
      <trkpt lat="43.28647" lon="5.3781">
        <ele>58.3</ele>
        <time>2016-04-22T12:10:46Z</time>
      </trkpt>
      <trkpt lat="43.2865" lon="5.37809">
        <ele>58.3</ele>
        <time>2016-04-22T12:11:11Z</time>
      </trkpt>
      <trkpt lat="43.28649" lon="5.37809">
        <ele>58.3</ele>
        <time>2016-04-22T12:11:42Z</time>
      </trkpt>
      <trkpt lat="43.28649" lon="5.37811">
        <ele>56.37</ele>
        <time>2016-04-22T12:12:14Z</time>
      </trkpt>
      <trkpt lat="43.28652" lon="5.37812">
        <ele>56.37</ele>
        <time>2016-04-22T12:12:53Z</time>
      </trkpt>
      <trkpt lat="43.2865" lon="5.3781">
        <ele>59.74</ele>
        <time>2016-04-22T12:13:29Z</time>
      </trkpt>
      <trkpt lat="43.28654" lon="5.37812">
        <ele>63.1</ele>
        <time>2016-04-22T12:14:10Z</time>
      </trkpt>
      <trkpt lat="43.28654" lon="5.37814">
        <ele>64.55</ele>
        <time>2016-04-22T12:14:48Z</time>
      </trkpt>
      <trkpt lat="43.28653" lon="5.37811">
        <ele>65.51</ele>
        <time>2016-04-22T12:15:23Z</time>
      </trkpt>
      <trkpt lat="43.28649" lon="5.37808">
        <ele>65.51</ele>
        <time>2016-04-22T12:15:39Z</time>
      </trkpt>
      <trkpt lat="43.28648" lon="5.37801">
        <ele>57.82</ele>
        <time>2016-04-22T12:15:57Z</time>
      </trkpt>
      <trkpt lat="43.28653" lon="5.37798">
        <ele>47.72</ele>
        <time>2016-04-22T12:16:17Z</time>
      </trkpt>
      <trkpt lat="43.28659" lon="5.37798">
        <ele>44.36</ele>
        <time>2016-04-22T12:16:29Z</time>
      </trkpt>
      <trkpt lat="43.28693" lon="5.37792">
        <ele>31.38</ele>
        <time>2016-04-22T12:21:08Z</time>
      </trkpt>
      <trkpt lat="43.28707" lon="5.37784">
        <ele>34.74</ele>
        <time>2016-04-22T12:21:20Z</time>
      </trkpt>
      <trkpt lat="43.28712" lon="5.37782">
        <ele>34.74</ele>
        <time>2016-04-22T12:21:21Z</time>
      </trkpt>
      <trkpt lat="43.28717" lon="5.3778">
        <ele>34.74</ele>
        <time>2016-04-22T12:21:22Z</time>
      </trkpt>
      <trkpt lat="43.28743" lon="5.37768">
        <ele>33.78</ele>
        <time>2016-04-22T12:21:27Z</time>
      </trkpt>
    </trkseg>
  </trk>
</gpx>